<?xml version="1.0" encoding="UTF-8" standalone="no" ?>
<gpx xmlns="http://www.topografix.com/GPX/1/1" xmlns:xsi="http://www.w3.org/2001/XMLSchema-instance" xsi:schemaLocation="http://www.topografix.com/GPX/1/1 http://www.topografix.com/GPX/1/1/gpx.xsd" version="1.1" creator="VisuGPX - https://www.visugpx.com">
  <metadata>
    <name>Sainte Victoire </name>
    <desc><![CDATA[grp_trc:[nouvelles]]]></desc>
  </metadata>
  <trk>
    <name><![CDATA[8 août 2022 à 10:07:29]]></name>
    <cmt><![CDATA[8 août 2022 à 10:07:29]]></cmt>
    <trkseg>
      <trkpt lat="45.50988" lon="6.41875">
        <ele>1907</ele>
        <time>2022-08-08T08:07:30Z</time>
      </trkpt>
      <trkpt lat="45.50989" lon="6.41875">
        <ele>1907</ele>
        <time>2022-08-08T08:07:31Z</time>
      </trkpt>
      <trkpt lat="45.50988" lon="6.41868">
        <ele>1907</ele>
        <time>2022-08-08T08:08:13Z</time>
      </trkpt>
      <trkpt lat="45.50995" lon="6.41866">
        <ele>1907</ele>
        <time>2022-08-08T08:08:29Z</time>
      </trkpt>
      <trkpt lat="45.50999" lon="6.41862">
        <ele>1909</ele>
        <time>2022-08-08T08:08:39Z</time>
      </trkpt>
      <trkpt lat="45.51" lon="6.41854">
        <ele>1909</ele>
        <time>2022-08-08T08:08:54Z</time>
      </trkpt>
      <trkpt lat="45.51" lon="6.41844">
        <ele>1911</ele>
        <time>2022-08-08T08:09:04Z</time>
      </trkpt>
      <trkpt lat="45.51" lon="6.4183">
        <ele>1913</ele>
        <time>2022-08-08T08:10:31Z</time>
      </trkpt>
      <trkpt lat="45.51" lon="6.41813">
        <ele>1916</ele>
        <time>2022-08-08T08:10:57Z</time>
      </trkpt>
      <trkpt lat="45.50998" lon="6.418">
        <ele>1918</ele>
        <time>2022-08-08T08:11:17Z</time>
      </trkpt>
      <trkpt lat="45.50995" lon="6.41793">
        <ele>1920</ele>
        <time>2022-08-08T08:11:27Z</time>
      </trkpt>
      <trkpt lat="45.50985" lon="6.41781">
        <ele>1921</ele>
        <time>2022-08-08T08:11:47Z</time>
      </trkpt>
      <trkpt lat="45.5098" lon="6.41764">
        <ele>1923</ele>
        <time>2022-08-08T08:12:07Z</time>
      </trkpt>
      <trkpt lat="45.50981" lon="6.41728">
        <ele>1926</ele>
        <time>2022-08-08T08:12:47Z</time>
      </trkpt>
      <trkpt lat="45.50985" lon="6.41721">
        <ele>1927</ele>
        <time>2022-08-08T08:12:57Z</time>
      </trkpt>
      <trkpt lat="45.50981" lon="6.41715">
        <ele>1927</ele>
        <time>2022-08-08T08:13:07Z</time>
      </trkpt>
      <trkpt lat="45.50979" lon="6.41708">
        <ele>1928</ele>
        <time>2022-08-08T08:13:14Z</time>
      </trkpt>
      <trkpt lat="45.50978" lon="6.41688">
        <ele>1929</ele>
        <time>2022-08-08T08:13:35Z</time>
      </trkpt>
      <trkpt lat="45.50979" lon="6.41668">
        <ele>1931</ele>
        <time>2022-08-08T08:13:55Z</time>
      </trkpt>
      <trkpt lat="45.50976" lon="6.41649">
        <ele>1932</ele>
        <time>2022-08-08T08:14:15Z</time>
      </trkpt>
      <trkpt lat="45.50974" lon="6.41641">
        <ele>1932</ele>
        <time>2022-08-08T08:14:25Z</time>
      </trkpt>
      <trkpt lat="45.50973" lon="6.41634">
        <ele>1933</ele>
        <time>2022-08-08T08:14:36Z</time>
      </trkpt>
      <trkpt lat="45.50966" lon="6.4162">
        <ele>1934</ele>
        <time>2022-08-08T08:14:54Z</time>
      </trkpt>
      <trkpt lat="45.50958" lon="6.41609">
        <ele>1936</ele>
        <time>2022-08-08T08:15:14Z</time>
      </trkpt>
      <trkpt lat="45.50946" lon="6.41599">
        <ele>1939</ele>
        <time>2022-08-08T08:15:44Z</time>
      </trkpt>
      <trkpt lat="45.50942" lon="6.41594">
        <ele>1940</ele>
        <time>2022-08-08T08:15:54Z</time>
      </trkpt>
      <trkpt lat="45.50931" lon="6.41585">
        <ele>1944</ele>
        <time>2022-08-08T08:16:24Z</time>
      </trkpt>
      <trkpt lat="45.50926" lon="6.41583">
        <ele>1945</ele>
        <time>2022-08-08T08:16:34Z</time>
      </trkpt>
      <trkpt lat="45.50909" lon="6.41568">
        <ele>1950</ele>
        <time>2022-08-08T08:17:53Z</time>
      </trkpt>
      <trkpt lat="45.50899" lon="6.41561">
        <ele>1952</ele>
        <time>2022-08-08T08:18:05Z</time>
      </trkpt>
      <trkpt lat="45.50887" lon="6.41548">
        <ele>1955</ele>
        <time>2022-08-08T08:18:23Z</time>
      </trkpt>
      <trkpt lat="45.50882" lon="6.41544">
        <ele>1956</ele>
        <time>2022-08-08T08:18:30Z</time>
      </trkpt>
      <trkpt lat="45.50875" lon="6.4153">
        <ele>1958</ele>
        <time>2022-08-08T08:18:45Z</time>
      </trkpt>
      <trkpt lat="45.50874" lon="6.41523">
        <ele>1959</ele>
        <time>2022-08-08T08:18:51Z</time>
      </trkpt>
      <trkpt lat="45.50871" lon="6.41518">
        <ele>1960</ele>
        <time>2022-08-08T08:18:56Z</time>
      </trkpt>
      <trkpt lat="45.50871" lon="6.41509">
        <ele>1961</ele>
        <time>2022-08-08T08:19:03Z</time>
      </trkpt>
      <trkpt lat="45.50874" lon="6.41488">
        <ele>1963</ele>
        <time>2022-08-08T08:19:20Z</time>
      </trkpt>
      <trkpt lat="45.50879" lon="6.41476">
        <ele>1964</ele>
        <time>2022-08-08T08:19:30Z</time>
      </trkpt>
      <trkpt lat="45.50883" lon="6.41464">
        <ele>1964</ele>
        <time>2022-08-08T08:19:40Z</time>
      </trkpt>
      <trkpt lat="45.50885" lon="6.41458">
        <ele>1965</ele>
        <time>2022-08-08T08:19:47Z</time>
      </trkpt>
      <trkpt lat="45.50891" lon="6.41434">
        <ele>1969</ele>
        <time>2022-08-08T08:20:22Z</time>
      </trkpt>
      <trkpt lat="45.50886" lon="6.41419">
        <ele>1971</ele>
        <time>2022-08-08T08:20:42Z</time>
      </trkpt>
      <trkpt lat="45.50881" lon="6.41414">
        <ele>1973</ele>
        <time>2022-08-08T08:20:53Z</time>
      </trkpt>
      <trkpt lat="45.50877" lon="6.41407">
        <ele>1974</ele>
        <time>2022-08-08T08:21:05Z</time>
      </trkpt>
      <trkpt lat="45.50876" lon="6.41391">
        <ele>1977</ele>
        <time>2022-08-08T08:21:26Z</time>
      </trkpt>
      <trkpt lat="45.50879" lon="6.41365">
        <ele>1981</ele>
        <time>2022-08-08T08:21:56Z</time>
      </trkpt>
      <trkpt lat="45.50878" lon="6.41357">
        <ele>1983</ele>
        <time>2022-08-08T08:22:06Z</time>
      </trkpt>
      <trkpt lat="45.5088" lon="6.41349">
        <ele>1985</ele>
        <time>2022-08-08T08:22:16Z</time>
      </trkpt>
      <trkpt lat="45.5088" lon="6.4133">
        <ele>1988</ele>
        <time>2022-08-08T08:22:36Z</time>
      </trkpt>
      <trkpt lat="45.50881" lon="6.41322">
        <ele>1990</ele>
        <time>2022-08-08T08:22:46Z</time>
      </trkpt>
      <trkpt lat="45.50882" lon="6.41311">
        <ele>1992</ele>
        <time>2022-08-08T08:22:57Z</time>
      </trkpt>
      <trkpt lat="45.5088" lon="6.41305">
        <ele>1993</ele>
        <time>2022-08-08T08:23:03Z</time>
      </trkpt>
      <trkpt lat="45.50882" lon="6.41292">
        <ele>1994</ele>
        <time>2022-08-08T08:23:16Z</time>
      </trkpt>
      <trkpt lat="45.50877" lon="6.41273">
        <ele>1997</ele>
        <time>2022-08-08T08:23:36Z</time>
      </trkpt>
      <trkpt lat="45.50874" lon="6.41269">
        <ele>1998</ele>
        <time>2022-08-08T08:23:41Z</time>
      </trkpt>
      <trkpt lat="45.5087" lon="6.41252">
        <ele>2000</ele>
        <time>2022-08-08T08:23:58Z</time>
      </trkpt>
      <trkpt lat="45.5087" lon="6.41232">
        <ele>2003</ele>
        <time>2022-08-08T08:24:18Z</time>
      </trkpt>
      <trkpt lat="45.50871" lon="6.41222">
        <ele>2004</ele>
        <time>2022-08-08T08:24:28Z</time>
      </trkpt>
      <trkpt lat="45.50872" lon="6.41212">
        <ele>2006</ele>
        <time>2022-08-08T08:25:26Z</time>
      </trkpt>
      <trkpt lat="45.50876" lon="6.41187">
        <ele>2010</ele>
        <time>2022-08-08T08:25:56Z</time>
      </trkpt>
      <trkpt lat="45.50879" lon="6.41176">
        <ele>2011</ele>
        <time>2022-08-08T08:27:32Z</time>
      </trkpt>
      <trkpt lat="45.50881" lon="6.41169">
        <ele>2011</ele>
        <time>2022-08-08T08:27:35Z</time>
      </trkpt>
      <trkpt lat="45.50885" lon="6.41159">
        <ele>2008</ele>
        <time>2022-08-08T08:27:44Z</time>
      </trkpt>
      <trkpt lat="45.50887" lon="6.41147">
        <ele>2007</ele>
        <time>2022-08-08T08:27:56Z</time>
      </trkpt>
      <trkpt lat="45.5089" lon="6.41134">
        <ele>2007</ele>
        <time>2022-08-08T08:28:05Z</time>
      </trkpt>
      <trkpt lat="45.50891" lon="6.41127">
        <ele>2007</ele>
        <time>2022-08-08T08:28:10Z</time>
      </trkpt>
      <trkpt lat="45.50892" lon="6.41121">
        <ele>2008</ele>
        <time>2022-08-08T08:28:15Z</time>
      </trkpt>
      <trkpt lat="45.50893" lon="6.41102">
        <ele>2009</ele>
        <time>2022-08-08T08:28:31Z</time>
      </trkpt>
      <trkpt lat="45.50898" lon="6.41082">
        <ele>2010</ele>
        <time>2022-08-08T08:28:46Z</time>
      </trkpt>
      <trkpt lat="45.50904" lon="6.41059">
        <ele>2010</ele>
        <time>2022-08-08T08:29:19Z</time>
      </trkpt>
      <trkpt lat="45.5091" lon="6.41039">
        <ele>2009</ele>
        <time>2022-08-08T08:29:36Z</time>
      </trkpt>
      <trkpt lat="45.50912" lon="6.41031">
        <ele>2010</ele>
        <time>2022-08-08T08:29:43Z</time>
      </trkpt>
      <trkpt lat="45.50915" lon="6.41026">
        <ele>2010</ele>
        <time>2022-08-08T08:29:48Z</time>
      </trkpt>
      <trkpt lat="45.50928" lon="6.41">
        <ele>2012</ele>
        <time>2022-08-08T08:30:24Z</time>
      </trkpt>
      <trkpt lat="45.50931" lon="6.40995">
        <ele>2013</ele>
        <time>2022-08-08T08:30:29Z</time>
      </trkpt>
      <trkpt lat="45.50932" lon="6.40988">
        <ele>2013</ele>
        <time>2022-08-08T08:30:36Z</time>
      </trkpt>
      <trkpt lat="45.50932" lon="6.40982">
        <ele>2015</ele>
        <time>2022-08-08T08:31:01Z</time>
      </trkpt>
      <trkpt lat="45.50933" lon="6.40975">
        <ele>2015</ele>
        <time>2022-08-08T08:31:06Z</time>
      </trkpt>
      <trkpt lat="45.50931" lon="6.40955">
        <ele>2018</ele>
        <time>2022-08-08T08:31:31Z</time>
      </trkpt>
      <trkpt lat="45.50932" lon="6.40949">
        <ele>2018</ele>
        <time>2022-08-08T08:31:36Z</time>
      </trkpt>
      <trkpt lat="45.50933" lon="6.40942">
        <ele>2019</ele>
        <time>2022-08-08T08:31:41Z</time>
      </trkpt>
      <trkpt lat="45.50933" lon="6.40932">
        <ele>2019</ele>
        <time>2022-08-08T08:31:50Z</time>
      </trkpt>
      <trkpt lat="45.50934" lon="6.4092">
        <ele>2020</ele>
        <time>2022-08-08T08:32:01Z</time>
      </trkpt>
      <trkpt lat="45.50932" lon="6.40897">
        <ele>2021</ele>
        <time>2022-08-08T08:32:27Z</time>
      </trkpt>
      <trkpt lat="45.50932" lon="6.4089">
        <ele>2021</ele>
        <time>2022-08-08T08:32:32Z</time>
      </trkpt>
      <trkpt lat="45.50935" lon="6.4088">
        <ele>2020</ele>
        <time>2022-08-08T08:32:41Z</time>
      </trkpt>
      <trkpt lat="45.50946" lon="6.40869">
        <ele>2018</ele>
        <time>2022-08-08T08:32:55Z</time>
      </trkpt>
      <trkpt lat="45.5095" lon="6.40868">
        <ele>2018</ele>
        <time>2022-08-08T08:33:02Z</time>
      </trkpt>
      <trkpt lat="45.50954" lon="6.40861">
        <ele>2019</ele>
        <time>2022-08-08T08:33:12Z</time>
      </trkpt>
      <trkpt lat="45.5096" lon="6.40854">
        <ele>2020</ele>
        <time>2022-08-08T08:33:23Z</time>
      </trkpt>
      <trkpt lat="45.50963" lon="6.40848">
        <ele>2020</ele>
        <time>2022-08-08T08:33:28Z</time>
      </trkpt>
      <trkpt lat="45.50966" lon="6.40843">
        <ele>2020</ele>
        <time>2022-08-08T08:33:33Z</time>
      </trkpt>
      <trkpt lat="45.50969" lon="6.40835">
        <ele>2020</ele>
        <time>2022-08-08T08:33:40Z</time>
      </trkpt>
      <trkpt lat="45.50972" lon="6.40828">
        <ele>2021</ele>
        <time>2022-08-08T08:33:52Z</time>
      </trkpt>
      <trkpt lat="45.50975" lon="6.40816">
        <ele>2021</ele>
        <time>2022-08-08T08:34:03Z</time>
      </trkpt>
      <trkpt lat="45.50975" lon="6.40817">
        <ele>2022</ele>
        <time>2022-08-08T08:34:42Z</time>
      </trkpt>
      <trkpt lat="45.50975" lon="6.40824">
        <ele>2022</ele>
        <time>2022-08-08T08:34:47Z</time>
      </trkpt>
      <trkpt lat="45.50977" lon="6.40829">
        <ele>2022</ele>
        <time>2022-08-08T08:34:54Z</time>
      </trkpt>
      <trkpt lat="45.50971" lon="6.40831">
        <ele>2022</ele>
        <time>2022-08-08T08:35:30Z</time>
      </trkpt>
      <trkpt lat="45.50972" lon="6.40838">
        <ele>2022</ele>
        <time>2022-08-08T08:35:52Z</time>
      </trkpt>
      <trkpt lat="45.5096" lon="6.40839">
        <ele>2022</ele>
        <time>2022-08-08T08:36:08Z</time>
      </trkpt>
      <trkpt lat="45.50956" lon="6.40837">
        <ele>2022</ele>
        <time>2022-08-08T08:36:12Z</time>
      </trkpt>
      <trkpt lat="45.50948" lon="6.40823">
        <ele>2020</ele>
        <time>2022-08-08T08:36:29Z</time>
      </trkpt>
      <trkpt lat="45.50945" lon="6.40831">
        <ele>2019</ele>
        <time>2022-08-08T08:37:09Z</time>
      </trkpt>
      <trkpt lat="45.50944" lon="6.40837">
        <ele>2019</ele>
        <time>2022-08-08T08:37:13Z</time>
      </trkpt>
      <trkpt lat="45.50943" lon="6.40843">
        <ele>2019</ele>
        <time>2022-08-08T08:37:17Z</time>
      </trkpt>
      <trkpt lat="45.50941" lon="6.40848">
        <ele>2019</ele>
        <time>2022-08-08T08:37:22Z</time>
      </trkpt>
      <trkpt lat="45.50935" lon="6.40852">
        <ele>2019</ele>
        <time>2022-08-08T08:37:28Z</time>
      </trkpt>
      <trkpt lat="45.50925" lon="6.40857">
        <ele>2018</ele>
        <time>2022-08-08T08:37:40Z</time>
      </trkpt>
      <trkpt lat="45.509" lon="6.40868">
        <ele>2012</ele>
        <time>2022-08-08T08:38:24Z</time>
      </trkpt>
      <trkpt lat="45.50896" lon="6.40862">
        <ele>2009</ele>
        <time>2022-08-08T08:38:39Z</time>
      </trkpt>
      <trkpt lat="45.50896" lon="6.40849">
        <ele>2005</ele>
        <time>2022-08-08T08:38:59Z</time>
      </trkpt>
      <trkpt lat="45.50895" lon="6.40842">
        <ele>2002</ele>
        <time>2022-08-08T08:39:14Z</time>
      </trkpt>
      <trkpt lat="45.50891" lon="6.40839">
        <ele>1999</ele>
        <time>2022-08-08T08:39:29Z</time>
      </trkpt>
      <trkpt lat="45.50891" lon="6.40833">
        <ele>1996</ele>
        <time>2022-08-08T08:40:00Z</time>
      </trkpt>
      <trkpt lat="45.50896" lon="6.40818">
        <ele>1994</ele>
        <time>2022-08-08T08:41:00Z</time>
      </trkpt>
      <trkpt lat="45.50905" lon="6.40799">
        <ele>1992</ele>
        <time>2022-08-08T08:41:30Z</time>
      </trkpt>
      <trkpt lat="45.50909" lon="6.40791">
        <ele>1991</ele>
        <time>2022-08-08T08:41:40Z</time>
      </trkpt>
      <trkpt lat="45.50913" lon="6.40781">
        <ele>1989</ele>
        <time>2022-08-08T08:41:51Z</time>
      </trkpt>
      <trkpt lat="45.50919" lon="6.40771">
        <ele>1988</ele>
        <time>2022-08-08T08:42:03Z</time>
      </trkpt>
      <trkpt lat="45.50922" lon="6.40765">
        <ele>1988</ele>
        <time>2022-08-08T08:42:09Z</time>
      </trkpt>
      <trkpt lat="45.50935" lon="6.40736">
        <ele>1984</ele>
        <time>2022-08-08T08:42:39Z</time>
      </trkpt>
      <trkpt lat="45.50941" lon="6.40724">
        <ele>1983</ele>
        <time>2022-08-08T08:42:51Z</time>
      </trkpt>
      <trkpt lat="45.50945" lon="6.40717">
        <ele>1983</ele>
        <time>2022-08-08T08:43:01Z</time>
      </trkpt>
      <trkpt lat="45.50958" lon="6.4069">
        <ele>1984</ele>
        <time>2022-08-08T08:43:34Z</time>
      </trkpt>
      <trkpt lat="45.50963" lon="6.40679">
        <ele>1983</ele>
        <time>2022-08-08T08:43:43Z</time>
      </trkpt>
      <trkpt lat="45.50976" lon="6.40668">
        <ele>1984</ele>
        <time>2022-08-08T08:44:02Z</time>
      </trkpt>
      <trkpt lat="45.50987" lon="6.40656">
        <ele>1984</ele>
        <time>2022-08-08T08:44:20Z</time>
      </trkpt>
      <trkpt lat="45.50991" lon="6.40651">
        <ele>1984</ele>
        <time>2022-08-08T08:44:27Z</time>
      </trkpt>
      <trkpt lat="45.50999" lon="6.40641">
        <ele>1984</ele>
        <time>2022-08-08T08:44:40Z</time>
      </trkpt>
      <trkpt lat="45.51003" lon="6.40634">
        <ele>1984</ele>
        <time>2022-08-08T08:44:48Z</time>
      </trkpt>
      <trkpt lat="45.51006" lon="6.4063">
        <ele>1985</ele>
        <time>2022-08-08T08:44:53Z</time>
      </trkpt>
      <trkpt lat="45.51008" lon="6.40624">
        <ele>1985</ele>
        <time>2022-08-08T08:44:59Z</time>
      </trkpt>
      <trkpt lat="45.51014" lon="6.40616">
        <ele>1985</ele>
        <time>2022-08-08T08:45:09Z</time>
      </trkpt>
      <trkpt lat="45.51017" lon="6.40606">
        <ele>1986</ele>
        <time>2022-08-08T08:45:19Z</time>
      </trkpt>
      <trkpt lat="45.51022" lon="6.40598">
        <ele>1985</ele>
        <time>2022-08-08T08:45:29Z</time>
      </trkpt>
      <trkpt lat="45.51025" lon="6.40585">
        <ele>1985</ele>
        <time>2022-08-08T08:45:43Z</time>
      </trkpt>
      <trkpt lat="45.51033" lon="6.40573">
        <ele>1984</ele>
        <time>2022-08-08T08:45:56Z</time>
      </trkpt>
      <trkpt lat="45.51049" lon="6.40537">
        <ele>1984</ele>
        <time>2022-08-08T08:46:31Z</time>
      </trkpt>
      <trkpt lat="45.51054" lon="6.40527">
        <ele>1983</ele>
        <time>2022-08-08T08:46:52Z</time>
      </trkpt>
      <trkpt lat="45.51059" lon="6.40519">
        <ele>1983</ele>
        <time>2022-08-08T08:47:00Z</time>
      </trkpt>
      <trkpt lat="45.51063" lon="6.40508">
        <ele>1982</ele>
        <time>2022-08-08T08:47:09Z</time>
      </trkpt>
      <trkpt lat="45.51066" lon="6.40503">
        <ele>1982</ele>
        <time>2022-08-08T08:47:14Z</time>
      </trkpt>
      <trkpt lat="45.51067" lon="6.40487">
        <ele>1980</ele>
        <time>2022-08-08T08:47:52Z</time>
      </trkpt>
      <trkpt lat="45.5107" lon="6.40481">
        <ele>1979</ele>
        <time>2022-08-08T08:48:02Z</time>
      </trkpt>
      <trkpt lat="45.51072" lon="6.40475">
        <ele>1980</ele>
        <time>2022-08-08T08:49:10Z</time>
      </trkpt>
      <trkpt lat="45.51079" lon="6.40457">
        <ele>1978</ele>
        <time>2022-08-08T08:49:31Z</time>
      </trkpt>
      <trkpt lat="45.51082" lon="6.4045">
        <ele>1978</ele>
        <time>2022-08-08T08:49:41Z</time>
      </trkpt>
      <trkpt lat="45.51087" lon="6.4044">
        <ele>1977</ele>
        <time>2022-08-08T08:49:51Z</time>
      </trkpt>
      <trkpt lat="45.5109" lon="6.40434">
        <ele>1977</ele>
        <time>2022-08-08T08:51:00Z</time>
      </trkpt>
      <trkpt lat="45.51091" lon="6.40427">
        <ele>1979</ele>
        <time>2022-08-08T08:51:25Z</time>
      </trkpt>
      <trkpt lat="45.51091" lon="6.40418">
        <ele>1979</ele>
        <time>2022-08-08T08:51:40Z</time>
      </trkpt>
      <trkpt lat="45.51095" lon="6.4041">
        <ele>1979</ele>
        <time>2022-08-08T08:52:00Z</time>
      </trkpt>
      <trkpt lat="45.51102" lon="6.40398">
        <ele>1979</ele>
        <time>2022-08-08T08:52:27Z</time>
      </trkpt>
      <trkpt lat="45.51106" lon="6.40386">
        <ele>1980</ele>
        <time>2022-08-08T08:52:39Z</time>
      </trkpt>
      <trkpt lat="45.51109" lon="6.40377">
        <ele>1980</ele>
        <time>2022-08-08T08:52:49Z</time>
      </trkpt>
      <trkpt lat="45.51114" lon="6.40367">
        <ele>1979</ele>
        <time>2022-08-08T08:52:59Z</time>
      </trkpt>
      <trkpt lat="45.51117" lon="6.40359">
        <ele>1979</ele>
        <time>2022-08-08T08:53:07Z</time>
      </trkpt>
      <trkpt lat="45.51128" lon="6.40335">
        <ele>1981</ele>
        <time>2022-08-08T08:53:37Z</time>
      </trkpt>
      <trkpt lat="45.51129" lon="6.40327">
        <ele>1982</ele>
        <time>2022-08-08T08:53:47Z</time>
      </trkpt>
      <trkpt lat="45.51133" lon="6.40323">
        <ele>1983</ele>
        <time>2022-08-08T08:53:57Z</time>
      </trkpt>
      <trkpt lat="45.51137" lon="6.40314">
        <ele>1984</ele>
        <time>2022-08-08T08:54:12Z</time>
      </trkpt>
      <trkpt lat="45.51139" lon="6.40305">
        <ele>1985</ele>
        <time>2022-08-08T08:54:22Z</time>
      </trkpt>
      <trkpt lat="45.51147" lon="6.40283">
        <ele>1987</ele>
        <time>2022-08-08T08:54:51Z</time>
      </trkpt>
      <trkpt lat="45.5115" lon="6.40271">
        <ele>1987</ele>
        <time>2022-08-08T08:55:03Z</time>
      </trkpt>
      <trkpt lat="45.51154" lon="6.40263">
        <ele>1987</ele>
        <time>2022-08-08T08:55:13Z</time>
      </trkpt>
      <trkpt lat="45.51157" lon="6.40256">
        <ele>1988</ele>
        <time>2022-08-08T08:55:23Z</time>
      </trkpt>
      <trkpt lat="45.51162" lon="6.40251">
        <ele>1990</ele>
        <time>2022-08-08T08:55:33Z</time>
      </trkpt>
      <trkpt lat="45.51165" lon="6.40243">
        <ele>1991</ele>
        <time>2022-08-08T08:55:48Z</time>
      </trkpt>
      <trkpt lat="45.51171" lon="6.40231">
        <ele>1993</ele>
        <time>2022-08-08T08:56:08Z</time>
      </trkpt>
      <trkpt lat="45.51174" lon="6.40224">
        <ele>1994</ele>
        <time>2022-08-08T08:56:28Z</time>
      </trkpt>
      <trkpt lat="45.51178" lon="6.4022">
        <ele>1996</ele>
        <time>2022-08-08T08:56:39Z</time>
      </trkpt>
      <trkpt lat="45.51181" lon="6.4021">
        <ele>1997</ele>
        <time>2022-08-08T08:56:51Z</time>
      </trkpt>
      <trkpt lat="45.51182" lon="6.40203">
        <ele>1998</ele>
        <time>2022-08-08T08:57:01Z</time>
      </trkpt>
      <trkpt lat="45.51184" lon="6.40196">
        <ele>1999</ele>
        <time>2022-08-08T08:57:11Z</time>
      </trkpt>
      <trkpt lat="45.5119" lon="6.40175">
        <ele>2001</ele>
        <time>2022-08-08T08:57:41Z</time>
      </trkpt>
      <trkpt lat="45.51196" lon="6.40155">
        <ele>2004</ele>
        <time>2022-08-08T08:58:16Z</time>
      </trkpt>
      <trkpt lat="45.51198" lon="6.40149">
        <ele>2006</ele>
        <time>2022-08-08T08:58:31Z</time>
      </trkpt>
      <trkpt lat="45.51199" lon="6.40142">
        <ele>2009</ele>
        <time>2022-08-08T08:58:47Z</time>
      </trkpt>
      <trkpt lat="45.512" lon="6.40135">
        <ele>2011</ele>
        <time>2022-08-08T08:59:08Z</time>
      </trkpt>
      <trkpt lat="45.51203" lon="6.40128">
        <ele>2013</ele>
        <time>2022-08-08T08:59:23Z</time>
      </trkpt>
      <trkpt lat="45.51204" lon="6.40121">
        <ele>2015</ele>
        <time>2022-08-08T08:59:38Z</time>
      </trkpt>
      <trkpt lat="45.51207" lon="6.40115">
        <ele>2017</ele>
        <time>2022-08-08T08:59:58Z</time>
      </trkpt>
      <trkpt lat="45.51208" lon="6.40108">
        <ele>2019</ele>
        <time>2022-08-08T09:00:28Z</time>
      </trkpt>
      <trkpt lat="45.51211" lon="6.40094">
        <ele>2021</ele>
        <time>2022-08-08T09:00:55Z</time>
      </trkpt>
      <trkpt lat="45.51213" lon="6.40088">
        <ele>2022</ele>
        <time>2022-08-08T09:01:06Z</time>
      </trkpt>
      <trkpt lat="45.51216" lon="6.40065">
        <ele>2025</ele>
        <time>2022-08-08T09:01:36Z</time>
      </trkpt>
      <trkpt lat="45.51217" lon="6.40058">
        <ele>2026</ele>
        <time>2022-08-08T09:01:46Z</time>
      </trkpt>
      <trkpt lat="45.51219" lon="6.4004">
        <ele>2028</ele>
        <time>2022-08-08T09:02:06Z</time>
      </trkpt>
      <trkpt lat="45.51223" lon="6.40015">
        <ele>2030</ele>
        <time>2022-08-08T09:02:36Z</time>
      </trkpt>
      <trkpt lat="45.51225" lon="6.3999">
        <ele>2035</ele>
        <time>2022-08-08T09:03:09Z</time>
      </trkpt>
      <trkpt lat="45.51225" lon="6.39967">
        <ele>2038</ele>
        <time>2022-08-08T09:03:39Z</time>
      </trkpt>
      <trkpt lat="45.51226" lon="6.39959">
        <ele>2039</ele>
        <time>2022-08-08T09:03:49Z</time>
      </trkpt>
      <trkpt lat="45.51225" lon="6.39952">
        <ele>2040</ele>
        <time>2022-08-08T09:03:59Z</time>
      </trkpt>
      <trkpt lat="45.51225" lon="6.3995">
        <ele>2042</ele>
        <time>2022-08-08T09:06:07Z</time>
      </trkpt>
      <trkpt lat="45.51224" lon="6.39943">
        <ele>2043</ele>
        <time>2022-08-08T09:06:37Z</time>
      </trkpt>
      <trkpt lat="45.51223" lon="6.39936">
        <ele>2043</ele>
        <time>2022-08-08T09:07:09Z</time>
      </trkpt>
      <trkpt lat="45.51223" lon="6.39927">
        <ele>2045</ele>
        <time>2022-08-08T09:07:21Z</time>
      </trkpt>
      <trkpt lat="45.5122" lon="6.39919">
        <ele>2046</ele>
        <time>2022-08-08T09:07:31Z</time>
      </trkpt>
      <trkpt lat="45.51218" lon="6.39912">
        <ele>2047</ele>
        <time>2022-08-08T09:07:41Z</time>
      </trkpt>
      <trkpt lat="45.51211" lon="6.399">
        <ele>2050</ele>
        <time>2022-08-08T09:08:11Z</time>
      </trkpt>
      <trkpt lat="45.51203" lon="6.39881">
        <ele>2054</ele>
        <time>2022-08-08T09:08:51Z</time>
      </trkpt>
      <trkpt lat="45.51199" lon="6.39873">
        <ele>2055</ele>
        <time>2022-08-08T09:09:01Z</time>
      </trkpt>
      <trkpt lat="45.51196" lon="6.39858">
        <ele>2058</ele>
        <time>2022-08-08T09:09:23Z</time>
      </trkpt>
      <trkpt lat="45.5119" lon="6.39839">
        <ele>2062</ele>
        <time>2022-08-08T09:09:58Z</time>
      </trkpt>
      <trkpt lat="45.51185" lon="6.39826">
        <ele>2065</ele>
        <time>2022-08-08T09:10:28Z</time>
      </trkpt>
      <trkpt lat="45.51184" lon="6.39818">
        <ele>2067</ele>
        <time>2022-08-08T09:10:43Z</time>
      </trkpt>
      <trkpt lat="45.5118" lon="6.39804">
        <ele>2071</ele>
        <time>2022-08-08T09:11:25Z</time>
      </trkpt>
      <trkpt lat="45.51176" lon="6.39789">
        <ele>2074</ele>
        <time>2022-08-08T09:12:01Z</time>
      </trkpt>
      <trkpt lat="45.51173" lon="6.39784">
        <ele>2076</ele>
        <time>2022-08-08T09:12:11Z</time>
      </trkpt>
      <trkpt lat="45.5117" lon="6.39768">
        <ele>2079</ele>
        <time>2022-08-08T09:12:41Z</time>
      </trkpt>
      <trkpt lat="45.51171" lon="6.39762">
        <ele>2081</ele>
        <time>2022-08-08T09:13:22Z</time>
      </trkpt>
      <trkpt lat="45.51166" lon="6.39756">
        <ele>2083</ele>
        <time>2022-08-08T09:13:39Z</time>
      </trkpt>
      <trkpt lat="45.51163" lon="6.39751">
        <ele>2084</ele>
        <time>2022-08-08T09:14:04Z</time>
      </trkpt>
      <trkpt lat="45.5116" lon="6.39742">
        <ele>2087</ele>
        <time>2022-08-08T09:14:24Z</time>
      </trkpt>
      <trkpt lat="45.51158" lon="6.39734">
        <ele>2088</ele>
        <time>2022-08-08T09:14:59Z</time>
      </trkpt>
      <trkpt lat="45.51157" lon="6.39726">
        <ele>2090</ele>
        <time>2022-08-08T09:15:14Z</time>
      </trkpt>
      <trkpt lat="45.51157" lon="6.39708">
        <ele>2090</ele>
        <time>2022-08-08T09:15:30Z</time>
      </trkpt>
      <trkpt lat="45.51158" lon="6.39689">
        <ele>2094</ele>
        <time>2022-08-08T09:15:53Z</time>
      </trkpt>
      <trkpt lat="45.51161" lon="6.39683">
        <ele>2095</ele>
        <time>2022-08-08T09:16:03Z</time>
      </trkpt>
      <trkpt lat="45.51165" lon="6.39658">
        <ele>2098</ele>
        <time>2022-08-08T09:16:33Z</time>
      </trkpt>
      <trkpt lat="45.51167" lon="6.39649">
        <ele>2098</ele>
        <time>2022-08-08T09:16:43Z</time>
      </trkpt>
      <trkpt lat="45.51166" lon="6.39641">
        <ele>2099</ele>
        <time>2022-08-08T09:17:03Z</time>
      </trkpt>
      <trkpt lat="45.51165" lon="6.39633">
        <ele>2099</ele>
        <time>2022-08-08T09:17:13Z</time>
      </trkpt>
      <trkpt lat="45.51165" lon="6.39626">
        <ele>2100</ele>
        <time>2022-08-08T09:18:19Z</time>
      </trkpt>
      <trkpt lat="45.51162" lon="6.39619">
        <ele>2100</ele>
        <time>2022-08-08T09:18:29Z</time>
      </trkpt>
      <trkpt lat="45.51157" lon="6.39612">
        <ele>2102</ele>
        <time>2022-08-08T09:18:44Z</time>
      </trkpt>
      <trkpt lat="45.51152" lon="6.39609">
        <ele>2104</ele>
        <time>2022-08-08T09:19:19Z</time>
      </trkpt>
      <trkpt lat="45.51147" lon="6.39603">
        <ele>2105</ele>
        <time>2022-08-08T09:19:40Z</time>
      </trkpt>
      <trkpt lat="45.51145" lon="6.39597">
        <ele>2107</ele>
        <time>2022-08-08T09:20:05Z</time>
      </trkpt>
      <trkpt lat="45.51145" lon="6.39589">
        <ele>2108</ele>
        <time>2022-08-08T09:20:30Z</time>
      </trkpt>
      <trkpt lat="45.51149" lon="6.39584">
        <ele>2109</ele>
        <time>2022-08-08T09:20:55Z</time>
      </trkpt>
      <trkpt lat="45.51152" lon="6.39578">
        <ele>2110</ele>
        <time>2022-08-08T09:21:05Z</time>
      </trkpt>
      <trkpt lat="45.51156" lon="6.39571">
        <ele>2111</ele>
        <time>2022-08-08T09:21:15Z</time>
      </trkpt>
      <trkpt lat="45.51158" lon="6.39563">
        <ele>2112</ele>
        <time>2022-08-08T09:21:25Z</time>
      </trkpt>
      <trkpt lat="45.51162" lon="6.39557">
        <ele>2114</ele>
        <time>2022-08-08T09:21:35Z</time>
      </trkpt>
      <trkpt lat="45.51165" lon="6.39539">
        <ele>2115</ele>
        <time>2022-08-08T09:21:56Z</time>
      </trkpt>
      <trkpt lat="45.51164" lon="6.39529">
        <ele>2116</ele>
        <time>2022-08-08T09:22:07Z</time>
      </trkpt>
      <trkpt lat="45.51162" lon="6.39521">
        <ele>2117</ele>
        <time>2022-08-08T09:22:17Z</time>
      </trkpt>
      <trkpt lat="45.51163" lon="6.39511">
        <ele>2118</ele>
        <time>2022-08-08T09:22:27Z</time>
      </trkpt>
      <trkpt lat="45.51167" lon="6.395">
        <ele>2117</ele>
        <time>2022-08-08T09:22:42Z</time>
      </trkpt>
      <trkpt lat="45.51166" lon="6.39493">
        <ele>2117</ele>
        <time>2022-08-08T09:22:49Z</time>
      </trkpt>
      <trkpt lat="45.51163" lon="6.39485">
        <ele>2119</ele>
        <time>2022-08-08T09:22:59Z</time>
      </trkpt>
      <trkpt lat="45.51162" lon="6.39475">
        <ele>2119</ele>
        <time>2022-08-08T09:23:09Z</time>
      </trkpt>
      <trkpt lat="45.51165" lon="6.39468">
        <ele>2119</ele>
        <time>2022-08-08T09:23:19Z</time>
      </trkpt>
      <trkpt lat="45.51172" lon="6.39438">
        <ele>2123</ele>
        <time>2022-08-08T09:24:01Z</time>
      </trkpt>
      <trkpt lat="45.51175" lon="6.39432">
        <ele>2124</ele>
        <time>2022-08-08T09:24:11Z</time>
      </trkpt>
      <trkpt lat="45.51183" lon="6.39421">
        <ele>2126</ele>
        <time>2022-08-08T09:24:32Z</time>
      </trkpt>
      <trkpt lat="45.51185" lon="6.39413">
        <ele>2128</ele>
        <time>2022-08-08T09:24:47Z</time>
      </trkpt>
      <trkpt lat="45.51187" lon="6.39402">
        <ele>2129</ele>
        <time>2022-08-08T09:24:58Z</time>
      </trkpt>
      <trkpt lat="45.51191" lon="6.39397">
        <ele>2130</ele>
        <time>2022-08-08T09:25:13Z</time>
      </trkpt>
      <trkpt lat="45.51201" lon="6.39388">
        <ele>2131</ele>
        <time>2022-08-08T09:25:33Z</time>
      </trkpt>
      <trkpt lat="45.51207" lon="6.3939">
        <ele>2132</ele>
        <time>2022-08-08T09:25:43Z</time>
      </trkpt>
      <trkpt lat="45.51212" lon="6.39383">
        <ele>2134</ele>
        <time>2022-08-08T09:25:53Z</time>
      </trkpt>
      <trkpt lat="45.51231" lon="6.39383">
        <ele>2137</ele>
        <time>2022-08-08T09:26:26Z</time>
      </trkpt>
      <trkpt lat="45.51238" lon="6.39384">
        <ele>2139</ele>
        <time>2022-08-08T09:26:41Z</time>
      </trkpt>
      <trkpt lat="45.51241" lon="6.39378">
        <ele>2140</ele>
        <time>2022-08-08T09:26:56Z</time>
      </trkpt>
      <trkpt lat="45.51252" lon="6.39372">
        <ele>2142</ele>
        <time>2022-08-08T09:27:36Z</time>
      </trkpt>
      <trkpt lat="45.51257" lon="6.39373">
        <ele>2143</ele>
        <time>2022-08-08T09:27:56Z</time>
      </trkpt>
      <trkpt lat="45.51262" lon="6.39371">
        <ele>2145</ele>
        <time>2022-08-08T09:28:07Z</time>
      </trkpt>
      <trkpt lat="45.51266" lon="6.39371">
        <ele>2146</ele>
        <time>2022-08-08T09:28:19Z</time>
      </trkpt>
      <trkpt lat="45.51269" lon="6.39367">
        <ele>2147</ele>
        <time>2022-08-08T09:28:29Z</time>
      </trkpt>
      <trkpt lat="45.51274" lon="6.39368">
        <ele>2150</ele>
        <time>2022-08-08T09:28:44Z</time>
      </trkpt>
      <trkpt lat="45.51283" lon="6.3936">
        <ele>2152</ele>
        <time>2022-08-08T09:29:04Z</time>
      </trkpt>
      <trkpt lat="45.51287" lon="6.39367">
        <ele>2154</ele>
        <time>2022-08-08T09:29:19Z</time>
      </trkpt>
      <trkpt lat="45.5129" lon="6.39371">
        <ele>2156</ele>
        <time>2022-08-08T09:29:29Z</time>
      </trkpt>
      <trkpt lat="45.51298" lon="6.39369">
        <ele>2155</ele>
        <time>2022-08-08T09:29:39Z</time>
      </trkpt>
      <trkpt lat="45.51302" lon="6.39367">
        <ele>2156</ele>
        <time>2022-08-08T09:29:47Z</time>
      </trkpt>
      <trkpt lat="45.51306" lon="6.39363">
        <ele>2156</ele>
        <time>2022-08-08T09:30:02Z</time>
      </trkpt>
      <trkpt lat="45.51316" lon="6.39353">
        <ele>2158</ele>
        <time>2022-08-08T09:30:25Z</time>
      </trkpt>
      <trkpt lat="45.5132" lon="6.39351">
        <ele>2160</ele>
        <time>2022-08-08T09:30:35Z</time>
      </trkpt>
      <trkpt lat="45.51324" lon="6.39346">
        <ele>2162</ele>
        <time>2022-08-08T09:30:50Z</time>
      </trkpt>
      <trkpt lat="45.51328" lon="6.39344">
        <ele>2164</ele>
        <time>2022-08-08T09:31:05Z</time>
      </trkpt>
      <trkpt lat="45.51332" lon="6.39339">
        <ele>2166</ele>
        <time>2022-08-08T09:31:30Z</time>
      </trkpt>
      <trkpt lat="45.51337" lon="6.39334">
        <ele>2168</ele>
        <time>2022-08-08T09:31:50Z</time>
      </trkpt>
      <trkpt lat="45.51342" lon="6.3934">
        <ele>2171</ele>
        <time>2022-08-08T09:32:05Z</time>
      </trkpt>
      <trkpt lat="45.51346" lon="6.39341">
        <ele>2172</ele>
        <time>2022-08-08T09:32:16Z</time>
      </trkpt>
      <trkpt lat="45.51351" lon="6.3934">
        <ele>2174</ele>
        <time>2022-08-08T09:32:48Z</time>
      </trkpt>
      <trkpt lat="45.51356" lon="6.3934">
        <ele>2176</ele>
        <time>2022-08-08T09:33:03Z</time>
      </trkpt>
      <trkpt lat="45.51358" lon="6.39335">
        <ele>2177</ele>
        <time>2022-08-08T09:33:13Z</time>
      </trkpt>
      <trkpt lat="45.51359" lon="6.39328">
        <ele>2179</ele>
        <time>2022-08-08T09:33:28Z</time>
      </trkpt>
      <trkpt lat="45.51362" lon="6.39323">
        <ele>2182</ele>
        <time>2022-08-08T09:33:48Z</time>
      </trkpt>
      <trkpt lat="45.51364" lon="6.39317">
        <ele>2184</ele>
        <time>2022-08-08T09:34:03Z</time>
      </trkpt>
      <trkpt lat="45.51362" lon="6.39311">
        <ele>2187</ele>
        <time>2022-08-08T09:34:30Z</time>
      </trkpt>
      <trkpt lat="45.51366" lon="6.39305">
        <ele>2187</ele>
        <time>2022-08-08T09:35:36Z</time>
      </trkpt>
      <trkpt lat="45.51365" lon="6.39299">
        <ele>2189</ele>
        <time>2022-08-08T09:35:51Z</time>
      </trkpt>
      <trkpt lat="45.5136" lon="6.39293">
        <ele>2190</ele>
        <time>2022-08-08T09:36:01Z</time>
      </trkpt>
      <trkpt lat="45.51358" lon="6.39286">
        <ele>2191</ele>
        <time>2022-08-08T09:36:11Z</time>
      </trkpt>
      <trkpt lat="45.51362" lon="6.39271">
        <ele>2195</ele>
        <time>2022-08-08T09:36:45Z</time>
      </trkpt>
      <trkpt lat="45.51367" lon="6.39267">
        <ele>2196</ele>
        <time>2022-08-08T09:36:55Z</time>
      </trkpt>
      <trkpt lat="45.51372" lon="6.39267">
        <ele>2197</ele>
        <time>2022-08-08T09:37:05Z</time>
      </trkpt>
      <trkpt lat="45.51376" lon="6.39268">
        <ele>2198</ele>
        <time>2022-08-08T09:37:25Z</time>
      </trkpt>
      <trkpt lat="45.51381" lon="6.39267">
        <ele>2198</ele>
        <time>2022-08-08T09:37:40Z</time>
      </trkpt>
      <trkpt lat="45.51385" lon="6.39265">
        <ele>2199</ele>
        <time>2022-08-08T09:37:55Z</time>
      </trkpt>
      <trkpt lat="45.51392" lon="6.39254">
        <ele>2202</ele>
        <time>2022-08-08T09:38:30Z</time>
      </trkpt>
      <trkpt lat="45.51401" lon="6.39246">
        <ele>2205</ele>
        <time>2022-08-08T09:38:52Z</time>
      </trkpt>
      <trkpt lat="45.51406" lon="6.39248">
        <ele>2206</ele>
        <time>2022-08-08T09:40:22Z</time>
      </trkpt>
      <trkpt lat="45.51411" lon="6.39243">
        <ele>2209</ele>
        <time>2022-08-08T09:40:37Z</time>
      </trkpt>
      <trkpt lat="45.51414" lon="6.39239">
        <ele>2211</ele>
        <time>2022-08-08T09:40:53Z</time>
      </trkpt>
      <trkpt lat="45.51419" lon="6.39234">
        <ele>2213</ele>
        <time>2022-08-08T09:41:13Z</time>
      </trkpt>
      <trkpt lat="45.51431" lon="6.39241">
        <ele>2215</ele>
        <time>2022-08-08T09:41:33Z</time>
      </trkpt>
      <trkpt lat="45.51435" lon="6.39235">
        <ele>2216</ele>
        <time>2022-08-08T09:41:43Z</time>
      </trkpt>
      <trkpt lat="45.5144" lon="6.39234">
        <ele>2218</ele>
        <time>2022-08-08T09:41:58Z</time>
      </trkpt>
      <trkpt lat="45.51449" lon="6.39229">
        <ele>2221</ele>
        <time>2022-08-08T09:42:18Z</time>
      </trkpt>
      <trkpt lat="45.51451" lon="6.39223">
        <ele>2222</ele>
        <time>2022-08-08T09:42:28Z</time>
      </trkpt>
      <trkpt lat="45.51457" lon="6.39224">
        <ele>2225</ele>
        <time>2022-08-08T09:42:43Z</time>
      </trkpt>
      <trkpt lat="45.51463" lon="6.39222">
        <ele>2227</ele>
        <time>2022-08-08T09:42:59Z</time>
      </trkpt>
      <trkpt lat="45.51465" lon="6.39216">
        <ele>2229</ele>
        <time>2022-08-08T09:43:14Z</time>
      </trkpt>
      <trkpt lat="45.5147" lon="6.39214">
        <ele>2231</ele>
        <time>2022-08-08T09:43:29Z</time>
      </trkpt>
      <trkpt lat="45.51475" lon="6.39214">
        <ele>2233</ele>
        <time>2022-08-08T09:43:44Z</time>
      </trkpt>
      <trkpt lat="45.51478" lon="6.39207">
        <ele>2236</ele>
        <time>2022-08-08T09:44:09Z</time>
      </trkpt>
      <trkpt lat="45.51482" lon="6.39206">
        <ele>2239</ele>
        <time>2022-08-08T09:44:24Z</time>
      </trkpt>
      <trkpt lat="45.51486" lon="6.39201">
        <ele>2241</ele>
        <time>2022-08-08T09:44:34Z</time>
      </trkpt>
      <trkpt lat="45.51482" lon="6.39197">
        <ele>2242</ele>
        <time>2022-08-08T09:44:44Z</time>
      </trkpt>
      <trkpt lat="45.5148" lon="6.39189">
        <ele>2245</ele>
        <time>2022-08-08T09:45:01Z</time>
      </trkpt>
      <trkpt lat="45.51478" lon="6.39183">
        <ele>2247</ele>
        <time>2022-08-08T09:45:12Z</time>
      </trkpt>
      <trkpt lat="45.51479" lon="6.39176">
        <ele>2248</ele>
        <time>2022-08-08T09:45:22Z</time>
      </trkpt>
      <trkpt lat="45.51472" lon="6.3916">
        <ele>2251</ele>
        <time>2022-08-08T09:45:42Z</time>
      </trkpt>
      <trkpt lat="45.51482" lon="6.39133">
        <ele>2254</ele>
        <time>2022-08-08T09:46:10Z</time>
      </trkpt>
      <trkpt lat="45.51479" lon="6.39127">
        <ele>2255</ele>
        <time>2022-08-08T09:46:15Z</time>
      </trkpt>
      <trkpt lat="45.51479" lon="6.39118">
        <ele>2256</ele>
        <time>2022-08-08T09:46:23Z</time>
      </trkpt>
      <trkpt lat="45.51478" lon="6.39109">
        <ele>2256</ele>
        <time>2022-08-08T09:46:30Z</time>
      </trkpt>
      <trkpt lat="45.51477" lon="6.391">
        <ele>2255</ele>
        <time>2022-08-08T09:46:38Z</time>
      </trkpt>
      <trkpt lat="45.51479" lon="6.39091">
        <ele>2254</ele>
        <time>2022-08-08T09:46:46Z</time>
      </trkpt>
      <trkpt lat="45.5148" lon="6.39085">
        <ele>2254</ele>
        <time>2022-08-08T09:46:51Z</time>
      </trkpt>
      <trkpt lat="45.51484" lon="6.39063">
        <ele>2254</ele>
        <time>2022-08-08T09:47:12Z</time>
      </trkpt>
      <trkpt lat="45.51477" lon="6.39062">
        <ele>2254</ele>
        <time>2022-08-08T09:47:38Z</time>
      </trkpt>
      <trkpt lat="45.51473" lon="6.39067">
        <ele>2254</ele>
        <time>2022-08-08T09:47:42Z</time>
      </trkpt>
      <trkpt lat="45.51467" lon="6.39068">
        <ele>2254</ele>
        <time>2022-08-08T09:47:49Z</time>
      </trkpt>
      <trkpt lat="45.51463" lon="6.39064">
        <ele>2254</ele>
        <time>2022-08-08T09:47:53Z</time>
      </trkpt>
      <trkpt lat="45.51467" lon="6.3905">
        <ele>2254</ele>
        <time>2022-08-08T09:48:02Z</time>
      </trkpt>
      <trkpt lat="45.51466" lon="6.39044">
        <ele>2254</ele>
        <time>2022-08-08T09:48:07Z</time>
      </trkpt>
      <trkpt lat="45.51462" lon="6.39038">
        <ele>2255</ele>
        <time>2022-08-08T09:48:15Z</time>
      </trkpt>
      <trkpt lat="45.51462" lon="6.39041">
        <ele>2256</ele>
        <time>2022-08-08T09:48:46Z</time>
      </trkpt>
      <trkpt lat="45.51466" lon="6.39045">
        <ele>2254</ele>
        <time>2022-08-08T09:49:13Z</time>
      </trkpt>
      <trkpt lat="45.51463" lon="6.39054">
        <ele>2256</ele>
        <time>2022-08-08T09:55:10Z</time>
      </trkpt>
      <trkpt lat="45.51462" lon="6.39064">
        <ele>2256</ele>
        <time>2022-08-08T09:55:33Z</time>
      </trkpt>
      <trkpt lat="45.51469" lon="6.39069">
        <ele>2255</ele>
        <time>2022-08-08T09:55:49Z</time>
      </trkpt>
      <trkpt lat="45.51473" lon="6.39068">
        <ele>2255</ele>
        <time>2022-08-08T09:56:06Z</time>
      </trkpt>
      <trkpt lat="45.51479" lon="6.39068">
        <ele>2255</ele>
        <time>2022-08-08T09:56:16Z</time>
      </trkpt>
      <trkpt lat="45.51483" lon="6.39067">
        <ele>2255</ele>
        <time>2022-08-08T09:56:26Z</time>
      </trkpt>
      <trkpt lat="45.51484" lon="6.39068">
        <ele>2255</ele>
        <time>2022-08-08T10:03:46Z</time>
      </trkpt>
      <trkpt lat="45.51484" lon="6.39068">
        <ele>2255</ele>
        <time>2022-08-08T10:03:50Z</time>
      </trkpt>
      <trkpt lat="45.51483" lon="6.39067">
        <ele>2257</ele>
        <time>2022-08-08T10:18:18Z</time>
      </trkpt>
      <trkpt lat="45.51482" lon="6.39076">
        <ele>2257</ele>
        <time>2022-08-08T10:22:55Z</time>
      </trkpt>
      <trkpt lat="45.5148" lon="6.39083">
        <ele>2257</ele>
        <time>2022-08-08T10:23:06Z</time>
      </trkpt>
      <trkpt lat="45.51478" lon="6.39091">
        <ele>2258</ele>
        <time>2022-08-08T10:23:17Z</time>
      </trkpt>
      <trkpt lat="45.51475" lon="6.391">
        <ele>2257</ele>
        <time>2022-08-08T10:23:27Z</time>
      </trkpt>
      <trkpt lat="45.51473" lon="6.3911">
        <ele>2258</ele>
        <time>2022-08-08T10:23:37Z</time>
      </trkpt>
      <trkpt lat="45.51471" lon="6.39116">
        <ele>2258</ele>
        <time>2022-08-08T10:23:47Z</time>
      </trkpt>
      <trkpt lat="45.51466" lon="6.39138">
        <ele>2254</ele>
        <time>2022-08-08T10:24:10Z</time>
      </trkpt>
      <trkpt lat="45.51464" lon="6.39148">
        <ele>2253</ele>
        <time>2022-08-08T10:24:26Z</time>
      </trkpt>
      <trkpt lat="45.51463" lon="6.39155">
        <ele>2253</ele>
        <time>2022-08-08T10:24:28Z</time>
      </trkpt>
      <trkpt lat="45.51463" lon="6.39164">
        <ele>2252</ele>
        <time>2022-08-08T10:24:41Z</time>
      </trkpt>
      <trkpt lat="45.51471" lon="6.39164">
        <ele>2253</ele>
        <time>2022-08-08T10:25:02Z</time>
      </trkpt>
      <trkpt lat="45.51478" lon="6.39171">
        <ele>2252</ele>
        <time>2022-08-08T10:25:13Z</time>
      </trkpt>
      <trkpt lat="45.51492" lon="6.39183">
        <ele>2250</ele>
        <time>2022-08-08T10:25:31Z</time>
      </trkpt>
      <trkpt lat="45.51496" lon="6.39189">
        <ele>2248</ele>
        <time>2022-08-08T10:25:37Z</time>
      </trkpt>
      <trkpt lat="45.51488" lon="6.392">
        <ele>2244</ele>
        <time>2022-08-08T10:25:54Z</time>
      </trkpt>
      <trkpt lat="45.51484" lon="6.39205">
        <ele>2242</ele>
        <time>2022-08-08T10:26:04Z</time>
      </trkpt>
      <trkpt lat="45.51485" lon="6.39214">
        <ele>2239</ele>
        <time>2022-08-08T10:26:21Z</time>
      </trkpt>
      <trkpt lat="45.51481" lon="6.39217">
        <ele>2236</ele>
        <time>2022-08-08T10:26:31Z</time>
      </trkpt>
      <trkpt lat="45.51479" lon="6.39235">
        <ele>2230</ele>
        <time>2022-08-08T10:26:57Z</time>
      </trkpt>
      <trkpt lat="45.5147" lon="6.39237">
        <ele>2227</ele>
        <time>2022-08-08T10:27:10Z</time>
      </trkpt>
      <trkpt lat="45.51454" lon="6.39255">
        <ele>2220</ele>
        <time>2022-08-08T10:27:37Z</time>
      </trkpt>
      <trkpt lat="45.51437" lon="6.39265">
        <ele>2217</ele>
        <time>2022-08-08T10:27:56Z</time>
      </trkpt>
      <trkpt lat="45.51432" lon="6.39268">
        <ele>2215</ele>
        <time>2022-08-08T10:28:06Z</time>
      </trkpt>
      <trkpt lat="45.51425" lon="6.39264">
        <ele>2212</ele>
        <time>2022-08-08T10:28:16Z</time>
      </trkpt>
      <trkpt lat="45.51412" lon="6.39275">
        <ele>2207</ele>
        <time>2022-08-08T10:28:34Z</time>
      </trkpt>
      <trkpt lat="45.51407" lon="6.39276">
        <ele>2205</ele>
        <time>2022-08-08T10:28:41Z</time>
      </trkpt>
      <trkpt lat="45.51405" lon="6.39282">
        <ele>2204</ele>
        <time>2022-08-08T10:28:46Z</time>
      </trkpt>
      <trkpt lat="45.51407" lon="6.39296">
        <ele>2202</ele>
        <time>2022-08-08T10:28:56Z</time>
      </trkpt>
      <trkpt lat="45.51407" lon="6.39303">
        <ele>2201</ele>
        <time>2022-08-08T10:29:03Z</time>
      </trkpt>
      <trkpt lat="45.51404" lon="6.39308">
        <ele>2200</ele>
        <time>2022-08-08T10:29:08Z</time>
      </trkpt>
      <trkpt lat="45.51402" lon="6.39314">
        <ele>2199</ele>
        <time>2022-08-08T10:29:14Z</time>
      </trkpt>
      <trkpt lat="45.51396" lon="6.39318">
        <ele>2196</ele>
        <time>2022-08-08T10:29:26Z</time>
      </trkpt>
      <trkpt lat="45.51394" lon="6.39326">
        <ele>2194</ele>
        <time>2022-08-08T10:29:36Z</time>
      </trkpt>
      <trkpt lat="45.51394" lon="6.39338">
        <ele>2191</ele>
        <time>2022-08-08T10:29:46Z</time>
      </trkpt>
      <trkpt lat="45.51397" lon="6.39356">
        <ele>2187</ele>
        <time>2022-08-08T10:30:06Z</time>
      </trkpt>
      <trkpt lat="45.51397" lon="6.39362">
        <ele>2186</ele>
        <time>2022-08-08T10:30:21Z</time>
      </trkpt>
      <trkpt lat="45.51398" lon="6.39371">
        <ele>2185</ele>
        <time>2022-08-08T10:30:41Z</time>
      </trkpt>
      <trkpt lat="45.51396" lon="6.3938">
        <ele>2184</ele>
        <time>2022-08-08T10:30:51Z</time>
      </trkpt>
      <trkpt lat="45.51394" lon="6.39388">
        <ele>2182</ele>
        <time>2022-08-08T10:31:01Z</time>
      </trkpt>
      <trkpt lat="45.5139" lon="6.3941">
        <ele>2178</ele>
        <time>2022-08-08T10:31:34Z</time>
      </trkpt>
      <trkpt lat="45.51386" lon="6.39414">
        <ele>2179</ele>
        <time>2022-08-08T10:33:25Z</time>
      </trkpt>
      <trkpt lat="45.51374" lon="6.39421">
        <ele>2173</ele>
        <time>2022-08-08T10:33:46Z</time>
      </trkpt>
      <trkpt lat="45.5137" lon="6.39425">
        <ele>2172</ele>
        <time>2022-08-08T10:33:52Z</time>
      </trkpt>
      <trkpt lat="45.51364" lon="6.39428">
        <ele>2169</ele>
        <time>2022-08-08T10:34:00Z</time>
      </trkpt>
      <trkpt lat="45.51362" lon="6.39434">
        <ele>2168</ele>
        <time>2022-08-08T10:34:05Z</time>
      </trkpt>
      <trkpt lat="45.51358" lon="6.39438">
        <ele>2167</ele>
        <time>2022-08-08T10:34:10Z</time>
      </trkpt>
      <trkpt lat="45.51354" lon="6.3944">
        <ele>2166</ele>
        <time>2022-08-08T10:34:14Z</time>
      </trkpt>
      <trkpt lat="45.5135" lon="6.39444">
        <ele>2166</ele>
        <time>2022-08-08T10:34:18Z</time>
      </trkpt>
      <trkpt lat="45.51343" lon="6.39454">
        <ele>2164</ele>
        <time>2022-08-08T10:34:26Z</time>
      </trkpt>
      <trkpt lat="45.51338" lon="6.39474">
        <ele>2163</ele>
        <time>2022-08-08T10:34:39Z</time>
      </trkpt>
      <trkpt lat="45.51338" lon="6.39482">
        <ele>2162</ele>
        <time>2022-08-08T10:34:44Z</time>
      </trkpt>
      <trkpt lat="45.51332" lon="6.39492">
        <ele>2163</ele>
        <time>2022-08-08T10:34:53Z</time>
      </trkpt>
      <trkpt lat="45.51333" lon="6.39499">
        <ele>2162</ele>
        <time>2022-08-08T10:34:57Z</time>
      </trkpt>
      <trkpt lat="45.51328" lon="6.39501">
        <ele>2160</ele>
        <time>2022-08-08T10:35:09Z</time>
      </trkpt>
      <trkpt lat="45.51324" lon="6.39511">
        <ele>2158</ele>
        <time>2022-08-08T10:35:19Z</time>
      </trkpt>
      <trkpt lat="45.5132" lon="6.39517">
        <ele>2158</ele>
        <time>2022-08-08T10:35:24Z</time>
      </trkpt>
      <trkpt lat="45.51318" lon="6.39523">
        <ele>2157</ele>
        <time>2022-08-08T10:35:28Z</time>
      </trkpt>
      <trkpt lat="45.51315" lon="6.39527">
        <ele>2157</ele>
        <time>2022-08-08T10:35:32Z</time>
      </trkpt>
      <trkpt lat="45.51305" lon="6.39532">
        <ele>2156</ele>
        <time>2022-08-08T10:35:43Z</time>
      </trkpt>
      <trkpt lat="45.513" lon="6.39532">
        <ele>2155</ele>
        <time>2022-08-08T10:35:47Z</time>
      </trkpt>
      <trkpt lat="45.51296" lon="6.39531">
        <ele>2154</ele>
        <time>2022-08-08T10:35:51Z</time>
      </trkpt>
      <trkpt lat="45.51292" lon="6.39533">
        <ele>2155</ele>
        <time>2022-08-08T10:35:55Z</time>
      </trkpt>
      <trkpt lat="45.51288" lon="6.3953">
        <ele>2154</ele>
        <time>2022-08-08T10:35:59Z</time>
      </trkpt>
      <trkpt lat="45.51283" lon="6.3953">
        <ele>2154</ele>
        <time>2022-08-08T10:36:03Z</time>
      </trkpt>
      <trkpt lat="45.51278" lon="6.3953">
        <ele>2153</ele>
        <time>2022-08-08T10:36:07Z</time>
      </trkpt>
      <trkpt lat="45.51273" lon="6.39529">
        <ele>2152</ele>
        <time>2022-08-08T10:36:11Z</time>
      </trkpt>
      <trkpt lat="45.51261" lon="6.3954">
        <ele>2153</ele>
        <time>2022-08-08T10:36:25Z</time>
      </trkpt>
      <trkpt lat="45.51263" lon="6.3955">
        <ele>2150</ele>
        <time>2022-08-08T10:37:02Z</time>
      </trkpt>
      <trkpt lat="45.51261" lon="6.39556">
        <ele>2148</ele>
        <time>2022-08-08T10:37:09Z</time>
      </trkpt>
      <trkpt lat="45.51256" lon="6.39564">
        <ele>2144</ele>
        <time>2022-08-08T10:37:19Z</time>
      </trkpt>
      <trkpt lat="45.5125" lon="6.39567">
        <ele>2141</ele>
        <time>2022-08-08T10:37:29Z</time>
      </trkpt>
      <trkpt lat="45.51246" lon="6.39564">
        <ele>2139</ele>
        <time>2022-08-08T10:37:35Z</time>
      </trkpt>
      <trkpt lat="45.5124" lon="6.39564">
        <ele>2136</ele>
        <time>2022-08-08T10:37:45Z</time>
      </trkpt>
      <trkpt lat="45.51239" lon="6.3957">
        <ele>2134</ele>
        <time>2022-08-08T10:37:51Z</time>
      </trkpt>
      <trkpt lat="45.51231" lon="6.39578">
        <ele>2130</ele>
        <time>2022-08-08T10:38:04Z</time>
      </trkpt>
      <trkpt lat="45.51227" lon="6.3958">
        <ele>2129</ele>
        <time>2022-08-08T10:38:09Z</time>
      </trkpt>
      <trkpt lat="45.51224" lon="6.39585">
        <ele>2127</ele>
        <time>2022-08-08T10:38:14Z</time>
      </trkpt>
      <trkpt lat="45.51222" lon="6.39591">
        <ele>2126</ele>
        <time>2022-08-08T10:38:18Z</time>
      </trkpt>
      <trkpt lat="45.51222" lon="6.39597">
        <ele>2126</ele>
        <time>2022-08-08T10:38:22Z</time>
      </trkpt>
      <trkpt lat="45.51221" lon="6.39603">
        <ele>2126</ele>
        <time>2022-08-08T10:38:27Z</time>
      </trkpt>
      <trkpt lat="45.51211" lon="6.39609">
        <ele>2123</ele>
        <time>2022-08-08T10:38:44Z</time>
      </trkpt>
      <trkpt lat="45.51205" lon="6.39627">
        <ele>2119</ele>
        <time>2022-08-08T10:39:04Z</time>
      </trkpt>
      <trkpt lat="45.512" lon="6.3963">
        <ele>2117</ele>
        <time>2022-08-08T10:39:24Z</time>
      </trkpt>
      <trkpt lat="45.51193" lon="6.39633">
        <ele>2113</ele>
        <time>2022-08-08T10:39:40Z</time>
      </trkpt>
      <trkpt lat="45.51191" lon="6.39639">
        <ele>2110</ele>
        <time>2022-08-08T10:39:52Z</time>
      </trkpt>
      <trkpt lat="45.51185" lon="6.39641">
        <ele>2108</ele>
        <time>2022-08-08T10:40:03Z</time>
      </trkpt>
      <trkpt lat="45.51179" lon="6.39648">
        <ele>2105</ele>
        <time>2022-08-08T10:40:13Z</time>
      </trkpt>
      <trkpt lat="45.51173" lon="6.39645">
        <ele>2103</ele>
        <time>2022-08-08T10:40:19Z</time>
      </trkpt>
      <trkpt lat="45.51168" lon="6.39651">
        <ele>2100</ele>
        <time>2022-08-08T10:40:27Z</time>
      </trkpt>
      <trkpt lat="45.51164" lon="6.39656">
        <ele>2100</ele>
        <time>2022-08-08T10:40:31Z</time>
      </trkpt>
      <trkpt lat="45.51162" lon="6.3967">
        <ele>2098</ele>
        <time>2022-08-08T10:40:42Z</time>
      </trkpt>
      <trkpt lat="45.51161" lon="6.39677">
        <ele>2098</ele>
        <time>2022-08-08T10:40:46Z</time>
      </trkpt>
      <trkpt lat="45.51158" lon="6.3969">
        <ele>2097</ele>
        <time>2022-08-08T10:40:56Z</time>
      </trkpt>
      <trkpt lat="45.51155" lon="6.39711">
        <ele>2092</ele>
        <time>2022-08-08T10:41:12Z</time>
      </trkpt>
      <trkpt lat="45.51157" lon="6.39716">
        <ele>2092</ele>
        <time>2022-08-08T10:41:16Z</time>
      </trkpt>
      <trkpt lat="45.51158" lon="6.3973">
        <ele>2092</ele>
        <time>2022-08-08T10:41:26Z</time>
      </trkpt>
      <trkpt lat="45.51157" lon="6.39726">
        <ele>2091</ele>
        <time>2022-08-08T10:45:38Z</time>
      </trkpt>
      <trkpt lat="45.51156" lon="6.39707">
        <ele>2092</ele>
        <time>2022-08-08T10:45:49Z</time>
      </trkpt>
      <trkpt lat="45.51158" lon="6.3969">
        <ele>2094</ele>
        <time>2022-08-08T10:46:04Z</time>
      </trkpt>
      <trkpt lat="45.5116" lon="6.39683">
        <ele>2096</ele>
        <time>2022-08-08T10:46:11Z</time>
      </trkpt>
      <trkpt lat="45.51162" lon="6.39673">
        <ele>2097</ele>
        <time>2022-08-08T10:46:21Z</time>
      </trkpt>
      <trkpt lat="45.51163" lon="6.39665">
        <ele>2098</ele>
        <time>2022-08-08T10:46:26Z</time>
      </trkpt>
      <trkpt lat="45.51167" lon="6.39653">
        <ele>2099</ele>
        <time>2022-08-08T10:46:35Z</time>
      </trkpt>
      <trkpt lat="45.51167" lon="6.39646">
        <ele>2100</ele>
        <time>2022-08-08T10:46:39Z</time>
      </trkpt>
      <trkpt lat="45.51165" lon="6.3964">
        <ele>2100</ele>
        <time>2022-08-08T10:46:43Z</time>
      </trkpt>
      <trkpt lat="45.51163" lon="6.39621">
        <ele>2101</ele>
        <time>2022-08-08T10:46:55Z</time>
      </trkpt>
      <trkpt lat="45.51159" lon="6.39618">
        <ele>2102</ele>
        <time>2022-08-08T10:46:59Z</time>
      </trkpt>
      <trkpt lat="45.51156" lon="6.3961">
        <ele>2103</ele>
        <time>2022-08-08T10:47:06Z</time>
      </trkpt>
      <trkpt lat="45.51147" lon="6.39605">
        <ele>2105</ele>
        <time>2022-08-08T10:47:18Z</time>
      </trkpt>
      <trkpt lat="45.51144" lon="6.396">
        <ele>2107</ele>
        <time>2022-08-08T10:47:23Z</time>
      </trkpt>
      <trkpt lat="45.51141" lon="6.39593">
        <ele>2108</ele>
        <time>2022-08-08T10:47:30Z</time>
      </trkpt>
      <trkpt lat="45.51144" lon="6.39585">
        <ele>2109</ele>
        <time>2022-08-08T10:47:37Z</time>
      </trkpt>
      <trkpt lat="45.51143" lon="6.39577">
        <ele>2110</ele>
        <time>2022-08-08T10:47:44Z</time>
      </trkpt>
      <trkpt lat="45.51142" lon="6.39569">
        <ele>2111</ele>
        <time>2022-08-08T10:47:52Z</time>
      </trkpt>
      <trkpt lat="45.51141" lon="6.39559">
        <ele>2113</ele>
        <time>2022-08-08T10:48:01Z</time>
      </trkpt>
      <trkpt lat="45.5114" lon="6.3955">
        <ele>2114</ele>
        <time>2022-08-08T10:48:08Z</time>
      </trkpt>
      <trkpt lat="45.51134" lon="6.39534">
        <ele>2117</ele>
        <time>2022-08-08T10:48:22Z</time>
      </trkpt>
      <trkpt lat="45.51125" lon="6.39527">
        <ele>2118</ele>
        <time>2022-08-08T10:48:33Z</time>
      </trkpt>
      <trkpt lat="45.5112" lon="6.39526">
        <ele>2118</ele>
        <time>2022-08-08T10:48:37Z</time>
      </trkpt>
      <trkpt lat="45.51117" lon="6.39522">
        <ele>2118</ele>
        <time>2022-08-08T10:48:41Z</time>
      </trkpt>
      <trkpt lat="45.51111" lon="6.39518">
        <ele>2118</ele>
        <time>2022-08-08T10:48:51Z</time>
      </trkpt>
      <trkpt lat="45.51107" lon="6.39512">
        <ele>2120</ele>
        <time>2022-08-08T10:49:01Z</time>
      </trkpt>
      <trkpt lat="45.51099" lon="6.3951">
        <ele>2123</ele>
        <time>2022-08-08T10:49:13Z</time>
      </trkpt>
      <trkpt lat="45.51091" lon="6.39517">
        <ele>2124</ele>
        <time>2022-08-08T10:49:23Z</time>
      </trkpt>
      <trkpt lat="45.51071" lon="6.39504">
        <ele>2128</ele>
        <time>2022-08-08T10:49:49Z</time>
      </trkpt>
      <trkpt lat="45.51062" lon="6.3949">
        <ele>2129</ele>
        <time>2022-08-08T10:50:02Z</time>
      </trkpt>
      <trkpt lat="45.51056" lon="6.39486">
        <ele>2131</ele>
        <time>2022-08-08T10:50:12Z</time>
      </trkpt>
      <trkpt lat="45.51051" lon="6.39485">
        <ele>2133</ele>
        <time>2022-08-08T10:50:19Z</time>
      </trkpt>
      <trkpt lat="45.51048" lon="6.3948">
        <ele>2135</ele>
        <time>2022-08-08T10:50:30Z</time>
      </trkpt>
      <trkpt lat="45.51042" lon="6.39477">
        <ele>2139</ele>
        <time>2022-08-08T10:50:50Z</time>
      </trkpt>
      <trkpt lat="45.51039" lon="6.3947">
        <ele>2142</ele>
        <time>2022-08-08T10:51:05Z</time>
      </trkpt>
      <trkpt lat="45.51042" lon="6.39462">
        <ele>2145</ele>
        <time>2022-08-08T10:51:20Z</time>
      </trkpt>
      <trkpt lat="45.51036" lon="6.39459">
        <ele>2148</ele>
        <time>2022-08-08T10:51:31Z</time>
      </trkpt>
      <trkpt lat="45.51022" lon="6.3945">
        <ele>2153</ele>
        <time>2022-08-08T10:52:01Z</time>
      </trkpt>
      <trkpt lat="45.51018" lon="6.39449">
        <ele>2155</ele>
        <time>2022-08-08T10:52:11Z</time>
      </trkpt>
      <trkpt lat="45.51013" lon="6.39444">
        <ele>2158</ele>
        <time>2022-08-08T10:52:28Z</time>
      </trkpt>
      <trkpt lat="45.51007" lon="6.39443">
        <ele>2162</ele>
        <time>2022-08-08T10:52:44Z</time>
      </trkpt>
      <trkpt lat="45.51002" lon="6.39446">
        <ele>2165</ele>
        <time>2022-08-08T10:52:59Z</time>
      </trkpt>
      <trkpt lat="45.50996" lon="6.39454">
        <ele>2167</ele>
        <time>2022-08-08T10:53:13Z</time>
      </trkpt>
      <trkpt lat="45.50992" lon="6.39458">
        <ele>2169</ele>
        <time>2022-08-08T10:53:25Z</time>
      </trkpt>
      <trkpt lat="45.50987" lon="6.39466">
        <ele>2170</ele>
        <time>2022-08-08T10:53:35Z</time>
      </trkpt>
      <trkpt lat="45.50982" lon="6.39468">
        <ele>2171</ele>
        <time>2022-08-08T10:53:40Z</time>
      </trkpt>
      <trkpt lat="45.50975" lon="6.39465">
        <ele>2169</ele>
        <time>2022-08-08T10:53:58Z</time>
      </trkpt>
      <trkpt lat="45.5097" lon="6.39463">
        <ele>2169</ele>
        <time>2022-08-08T10:54:02Z</time>
      </trkpt>
      <trkpt lat="45.50966" lon="6.39443">
        <ele>2170</ele>
        <time>2022-08-08T10:54:09Z</time>
      </trkpt>
      <trkpt lat="45.50961" lon="6.39434">
        <ele>2170</ele>
        <time>2022-08-08T10:54:13Z</time>
      </trkpt>
      <trkpt lat="45.50956" lon="6.39433">
        <ele>2170</ele>
        <time>2022-08-08T10:54:15Z</time>
      </trkpt>
      <trkpt lat="45.50942" lon="6.39413">
        <ele>2170</ele>
        <time>2022-08-08T10:54:23Z</time>
      </trkpt>
      <trkpt lat="45.50932" lon="6.3941">
        <ele>2171</ele>
        <time>2022-08-08T10:54:28Z</time>
      </trkpt>
      <trkpt lat="45.50923" lon="6.39401">
        <ele>2174</ele>
        <time>2022-08-08T10:54:38Z</time>
      </trkpt>
      <trkpt lat="45.50919" lon="6.39396">
        <ele>2175</ele>
        <time>2022-08-08T10:54:45Z</time>
      </trkpt>
      <trkpt lat="45.50915" lon="6.39391">
        <ele>2175</ele>
        <time>2022-08-08T10:54:48Z</time>
      </trkpt>
      <trkpt lat="45.50915" lon="6.39384">
        <ele>2174</ele>
        <time>2022-08-08T10:54:50Z</time>
      </trkpt>
      <trkpt lat="45.50912" lon="6.39379">
        <ele>2174</ele>
        <time>2022-08-08T10:54:53Z</time>
      </trkpt>
      <trkpt lat="45.50909" lon="6.39374">
        <ele>2174</ele>
        <time>2022-08-08T10:54:56Z</time>
      </trkpt>
      <trkpt lat="45.50907" lon="6.39367">
        <ele>2174</ele>
        <time>2022-08-08T10:54:58Z</time>
      </trkpt>
      <trkpt lat="45.509" lon="6.39359">
        <ele>2174</ele>
        <time>2022-08-08T10:55:02Z</time>
      </trkpt>
      <trkpt lat="45.50896" lon="6.39348">
        <ele>2173</ele>
        <time>2022-08-08T10:55:06Z</time>
      </trkpt>
      <trkpt lat="45.50893" lon="6.39345">
        <ele>2174</ele>
        <time>2022-08-08T10:55:08Z</time>
      </trkpt>
      <trkpt lat="45.50882" lon="6.39335">
        <ele>2174</ele>
        <time>2022-08-08T10:55:16Z</time>
      </trkpt>
      <trkpt lat="45.50878" lon="6.39332">
        <ele>2175</ele>
        <time>2022-08-08T10:55:20Z</time>
      </trkpt>
      <trkpt lat="45.50875" lon="6.39327">
        <ele>2176</ele>
        <time>2022-08-08T10:55:23Z</time>
      </trkpt>
      <trkpt lat="45.50871" lon="6.39318">
        <ele>2176</ele>
        <time>2022-08-08T10:55:27Z</time>
      </trkpt>
      <trkpt lat="45.5086" lon="6.39295">
        <ele>2178</ele>
        <time>2022-08-08T10:55:39Z</time>
      </trkpt>
      <trkpt lat="45.50858" lon="6.39288">
        <ele>2178</ele>
        <time>2022-08-08T10:55:43Z</time>
      </trkpt>
      <trkpt lat="45.50854" lon="6.39285">
        <ele>2179</ele>
        <time>2022-08-08T10:55:47Z</time>
      </trkpt>
      <trkpt lat="45.50845" lon="6.39275">
        <ele>2179</ele>
        <time>2022-08-08T10:55:55Z</time>
      </trkpt>
      <trkpt lat="45.50843" lon="6.3927">
        <ele>2180</ele>
        <time>2022-08-08T10:55:59Z</time>
      </trkpt>
      <trkpt lat="45.50831" lon="6.39258">
        <ele>2182</ele>
        <time>2022-08-08T10:56:12Z</time>
      </trkpt>
      <trkpt lat="45.50817" lon="6.39249">
        <ele>2183</ele>
        <time>2022-08-08T10:56:22Z</time>
      </trkpt>
      <trkpt lat="45.50814" lon="6.39245">
        <ele>2182</ele>
        <time>2022-08-08T10:56:26Z</time>
      </trkpt>
      <trkpt lat="45.50811" lon="6.39238">
        <ele>2182</ele>
        <time>2022-08-08T10:56:29Z</time>
      </trkpt>
      <trkpt lat="45.5081" lon="6.39232">
        <ele>2182</ele>
        <time>2022-08-08T10:56:31Z</time>
      </trkpt>
      <trkpt lat="45.50806" lon="6.39226">
        <ele>2182</ele>
        <time>2022-08-08T10:56:34Z</time>
      </trkpt>
      <trkpt lat="45.50802" lon="6.39219">
        <ele>2182</ele>
        <time>2022-08-08T10:56:39Z</time>
      </trkpt>
      <trkpt lat="45.50797" lon="6.39204">
        <ele>2181</ele>
        <time>2022-08-08T10:56:46Z</time>
      </trkpt>
      <trkpt lat="45.50797" lon="6.39197">
        <ele>2180</ele>
        <time>2022-08-08T10:56:48Z</time>
      </trkpt>
      <trkpt lat="45.50794" lon="6.39185">
        <ele>2180</ele>
        <time>2022-08-08T10:56:52Z</time>
      </trkpt>
      <trkpt lat="45.50791" lon="6.39176">
        <ele>2180</ele>
        <time>2022-08-08T10:56:55Z</time>
      </trkpt>
      <trkpt lat="45.50781" lon="6.39166">
        <ele>2180</ele>
        <time>2022-08-08T10:57:05Z</time>
      </trkpt>
      <trkpt lat="45.50776" lon="6.39164">
        <ele>2180</ele>
        <time>2022-08-08T10:57:08Z</time>
      </trkpt>
      <trkpt lat="45.50773" lon="6.39159">
        <ele>2179</ele>
        <time>2022-08-08T10:57:11Z</time>
      </trkpt>
      <trkpt lat="45.50762" lon="6.39149">
        <ele>2179</ele>
        <time>2022-08-08T10:57:19Z</time>
      </trkpt>
      <trkpt lat="45.50757" lon="6.39152">
        <ele>2179</ele>
        <time>2022-08-08T10:57:21Z</time>
      </trkpt>
      <trkpt lat="45.50749" lon="6.39153">
        <ele>2179</ele>
        <time>2022-08-08T10:57:25Z</time>
      </trkpt>
      <trkpt lat="45.50731" lon="6.39142">
        <ele>2178</ele>
        <time>2022-08-08T10:57:35Z</time>
      </trkpt>
      <trkpt lat="45.50728" lon="6.39134">
        <ele>2176</ele>
        <time>2022-08-08T10:57:40Z</time>
      </trkpt>
      <trkpt lat="45.50727" lon="6.39126">
        <ele>2175</ele>
        <time>2022-08-08T10:57:44Z</time>
      </trkpt>
      <trkpt lat="45.50723" lon="6.39112">
        <ele>2174</ele>
        <time>2022-08-08T10:57:49Z</time>
      </trkpt>
      <trkpt lat="45.50724" lon="6.39104">
        <ele>2172</ele>
        <time>2022-08-08T10:57:52Z</time>
      </trkpt>
      <trkpt lat="45.50723" lon="6.39096">
        <ele>2171</ele>
        <time>2022-08-08T10:57:55Z</time>
      </trkpt>
      <trkpt lat="45.50721" lon="6.39091">
        <ele>2170</ele>
        <time>2022-08-08T10:57:57Z</time>
      </trkpt>
      <trkpt lat="45.50719" lon="6.39086">
        <ele>2169</ele>
        <time>2022-08-08T10:58:01Z</time>
      </trkpt>
      <trkpt lat="45.50715" lon="6.39073">
        <ele>2168</ele>
        <time>2022-08-08T10:58:09Z</time>
      </trkpt>
      <trkpt lat="45.50709" lon="6.39069">
        <ele>2167</ele>
        <time>2022-08-08T10:58:14Z</time>
      </trkpt>
      <trkpt lat="45.50704" lon="6.39069">
        <ele>2167</ele>
        <time>2022-08-08T10:58:18Z</time>
      </trkpt>
      <trkpt lat="45.50699" lon="6.39069">
        <ele>2167</ele>
        <time>2022-08-08T10:58:23Z</time>
      </trkpt>
      <trkpt lat="45.50691" lon="6.39066">
        <ele>2167</ele>
        <time>2022-08-08T10:58:31Z</time>
      </trkpt>
      <trkpt lat="45.50687" lon="6.39069">
        <ele>2167</ele>
        <time>2022-08-08T10:58:35Z</time>
      </trkpt>
      <trkpt lat="45.50681" lon="6.39073">
        <ele>2167</ele>
        <time>2022-08-08T10:58:42Z</time>
      </trkpt>
      <trkpt lat="45.50677" lon="6.39072">
        <ele>2167</ele>
        <time>2022-08-08T10:58:46Z</time>
      </trkpt>
      <trkpt lat="45.5067" lon="6.39074">
        <ele>2167</ele>
        <time>2022-08-08T10:58:50Z</time>
      </trkpt>
      <trkpt lat="45.50665" lon="6.39079">
        <ele>2166</ele>
        <time>2022-08-08T10:58:54Z</time>
      </trkpt>
      <trkpt lat="45.50656" lon="6.39084">
        <ele>2168</ele>
        <time>2022-08-08T10:59:03Z</time>
      </trkpt>
      <trkpt lat="45.50651" lon="6.39084">
        <ele>2169</ele>
        <time>2022-08-08T10:59:07Z</time>
      </trkpt>
      <trkpt lat="45.50643" lon="6.39093">
        <ele>2171</ele>
        <time>2022-08-08T10:59:15Z</time>
      </trkpt>
      <trkpt lat="45.5064" lon="6.39098">
        <ele>2171</ele>
        <time>2022-08-08T10:59:19Z</time>
      </trkpt>
      <trkpt lat="45.50636" lon="6.39104">
        <ele>2170</ele>
        <time>2022-08-08T10:59:23Z</time>
      </trkpt>
      <trkpt lat="45.5063" lon="6.39111">
        <ele>2169</ele>
        <time>2022-08-08T10:59:26Z</time>
      </trkpt>
      <trkpt lat="45.50624" lon="6.39128">
        <ele>2168</ele>
        <time>2022-08-08T10:59:36Z</time>
      </trkpt>
      <trkpt lat="45.50623" lon="6.39134">
        <ele>2168</ele>
        <time>2022-08-08T10:59:40Z</time>
      </trkpt>
      <trkpt lat="45.50607" lon="6.39147">
        <ele>2166</ele>
        <time>2022-08-08T10:59:58Z</time>
      </trkpt>
      <trkpt lat="45.50603" lon="6.39151">
        <ele>2166</ele>
        <time>2022-08-08T11:00:02Z</time>
      </trkpt>
      <trkpt lat="45.50599" lon="6.39154">
        <ele>2165</ele>
        <time>2022-08-08T11:00:06Z</time>
      </trkpt>
      <trkpt lat="45.50594" lon="6.3915">
        <ele>2164</ele>
        <time>2022-08-08T11:00:10Z</time>
      </trkpt>
      <trkpt lat="45.50589" lon="6.3915">
        <ele>2164</ele>
        <time>2022-08-08T11:00:14Z</time>
      </trkpt>
      <trkpt lat="45.50585" lon="6.39147">
        <ele>2163</ele>
        <time>2022-08-08T11:00:18Z</time>
      </trkpt>
      <trkpt lat="45.50583" lon="6.39141">
        <ele>2162</ele>
        <time>2022-08-08T11:00:20Z</time>
      </trkpt>
      <trkpt lat="45.50579" lon="6.39138">
        <ele>2162</ele>
        <time>2022-08-08T11:00:23Z</time>
      </trkpt>
      <trkpt lat="45.50574" lon="6.39135">
        <ele>2162</ele>
        <time>2022-08-08T11:00:27Z</time>
      </trkpt>
      <trkpt lat="45.50566" lon="6.39128">
        <ele>2161</ele>
        <time>2022-08-08T11:00:33Z</time>
      </trkpt>
      <trkpt lat="45.50561" lon="6.39127">
        <ele>2161</ele>
        <time>2022-08-08T11:00:36Z</time>
      </trkpt>
      <trkpt lat="45.50554" lon="6.39127">
        <ele>2160</ele>
        <time>2022-08-08T11:00:41Z</time>
      </trkpt>
      <trkpt lat="45.5055" lon="6.39128">
        <ele>2160</ele>
        <time>2022-08-08T11:00:45Z</time>
      </trkpt>
      <trkpt lat="45.50545" lon="6.39128">
        <ele>2159</ele>
        <time>2022-08-08T11:00:48Z</time>
      </trkpt>
      <trkpt lat="45.50541" lon="6.39129">
        <ele>2158</ele>
        <time>2022-08-08T11:00:51Z</time>
      </trkpt>
      <trkpt lat="45.50537" lon="6.39128">
        <ele>2157</ele>
        <time>2022-08-08T11:00:56Z</time>
      </trkpt>
      <trkpt lat="45.50532" lon="6.39124">
        <ele>2156</ele>
        <time>2022-08-08T11:01:00Z</time>
      </trkpt>
      <trkpt lat="45.50526" lon="6.39127">
        <ele>2156</ele>
        <time>2022-08-08T11:01:09Z</time>
      </trkpt>
      <trkpt lat="45.50522" lon="6.39133">
        <ele>2156</ele>
        <time>2022-08-08T11:01:14Z</time>
      </trkpt>
      <trkpt lat="45.50517" lon="6.39133">
        <ele>2155</ele>
        <time>2022-08-08T11:01:17Z</time>
      </trkpt>
      <trkpt lat="45.50512" lon="6.39133">
        <ele>2155</ele>
        <time>2022-08-08T11:01:20Z</time>
      </trkpt>
      <trkpt lat="45.50507" lon="6.39134">
        <ele>2156</ele>
        <time>2022-08-08T11:01:23Z</time>
      </trkpt>
      <trkpt lat="45.50502" lon="6.39135">
        <ele>2156</ele>
        <time>2022-08-08T11:01:27Z</time>
      </trkpt>
      <trkpt lat="45.50498" lon="6.39134">
        <ele>2155</ele>
        <time>2022-08-08T11:01:30Z</time>
      </trkpt>
      <trkpt lat="45.50479" lon="6.39139">
        <ele>2151</ele>
        <time>2022-08-08T11:01:45Z</time>
      </trkpt>
      <trkpt lat="45.50469" lon="6.39136">
        <ele>2150</ele>
        <time>2022-08-08T11:01:50Z</time>
      </trkpt>
      <trkpt lat="45.50464" lon="6.39141">
        <ele>2149</ele>
        <time>2022-08-08T11:01:53Z</time>
      </trkpt>
      <trkpt lat="45.50462" lon="6.39149">
        <ele>2147</ele>
        <time>2022-08-08T11:01:57Z</time>
      </trkpt>
      <trkpt lat="45.50457" lon="6.39149">
        <ele>2146</ele>
        <time>2022-08-08T11:01:59Z</time>
      </trkpt>
      <trkpt lat="45.50452" lon="6.39151">
        <ele>2144</ele>
        <time>2022-08-08T11:02:04Z</time>
      </trkpt>
      <trkpt lat="45.50447" lon="6.39151">
        <ele>2143</ele>
        <time>2022-08-08T11:02:07Z</time>
      </trkpt>
      <trkpt lat="45.50444" lon="6.39155">
        <ele>2141</ele>
        <time>2022-08-08T11:02:15Z</time>
      </trkpt>
      <trkpt lat="45.50431" lon="6.39162">
        <ele>2137</ele>
        <time>2022-08-08T11:02:27Z</time>
      </trkpt>
      <trkpt lat="45.50428" lon="6.39168">
        <ele>2137</ele>
        <time>2022-08-08T11:02:31Z</time>
      </trkpt>
      <trkpt lat="45.50426" lon="6.39173">
        <ele>2135</ele>
        <time>2022-08-08T11:02:39Z</time>
      </trkpt>
      <trkpt lat="45.5042" lon="6.39179">
        <ele>2133</ele>
        <time>2022-08-08T11:02:55Z</time>
      </trkpt>
      <trkpt lat="45.50417" lon="6.39184">
        <ele>2132</ele>
        <time>2022-08-08T11:02:59Z</time>
      </trkpt>
      <trkpt lat="45.50414" lon="6.39192">
        <ele>2131</ele>
        <time>2022-08-08T11:03:06Z</time>
      </trkpt>
      <trkpt lat="45.50404" lon="6.39208">
        <ele>2126</ele>
        <time>2022-08-08T11:03:21Z</time>
      </trkpt>
      <trkpt lat="45.50402" lon="6.39215">
        <ele>2125</ele>
        <time>2022-08-08T11:03:26Z</time>
      </trkpt>
      <trkpt lat="45.50404" lon="6.39222">
        <ele>2122</ele>
        <time>2022-08-08T11:03:32Z</time>
      </trkpt>
      <trkpt lat="45.5041" lon="6.39229">
        <ele>2119</ele>
        <time>2022-08-08T11:03:39Z</time>
      </trkpt>
      <trkpt lat="45.50413" lon="6.39234">
        <ele>2117</ele>
        <time>2022-08-08T11:03:43Z</time>
      </trkpt>
      <trkpt lat="45.50417" lon="6.39236">
        <ele>2115</ele>
        <time>2022-08-08T11:03:46Z</time>
      </trkpt>
      <trkpt lat="45.50413" lon="6.3925">
        <ele>2111</ele>
        <time>2022-08-08T11:03:57Z</time>
      </trkpt>
      <trkpt lat="45.50407" lon="6.39259">
        <ele>2109</ele>
        <time>2022-08-08T11:04:05Z</time>
      </trkpt>
      <trkpt lat="45.50402" lon="6.39262">
        <ele>2108</ele>
        <time>2022-08-08T11:04:09Z</time>
      </trkpt>
      <trkpt lat="45.50397" lon="6.3926">
        <ele>2107</ele>
        <time>2022-08-08T11:04:13Z</time>
      </trkpt>
      <trkpt lat="45.50393" lon="6.39258">
        <ele>2107</ele>
        <time>2022-08-08T11:04:16Z</time>
      </trkpt>
      <trkpt lat="45.50388" lon="6.39259">
        <ele>2107</ele>
        <time>2022-08-08T11:04:19Z</time>
      </trkpt>
      <trkpt lat="45.50383" lon="6.39261">
        <ele>2107</ele>
        <time>2022-08-08T11:04:23Z</time>
      </trkpt>
      <trkpt lat="45.50379" lon="6.39264">
        <ele>2106</ele>
        <time>2022-08-08T11:04:27Z</time>
      </trkpt>
      <trkpt lat="45.50367" lon="6.39277">
        <ele>2103</ele>
        <time>2022-08-08T11:04:40Z</time>
      </trkpt>
      <trkpt lat="45.50363" lon="6.39279">
        <ele>2102</ele>
        <time>2022-08-08T11:04:44Z</time>
      </trkpt>
      <trkpt lat="45.50355" lon="6.39279">
        <ele>2100</ele>
        <time>2022-08-08T11:05:17Z</time>
      </trkpt>
      <trkpt lat="45.50351" lon="6.39281">
        <ele>2099</ele>
        <time>2022-08-08T11:05:21Z</time>
      </trkpt>
      <trkpt lat="45.50333" lon="6.39299">
        <ele>2094</ele>
        <time>2022-08-08T11:05:38Z</time>
      </trkpt>
      <trkpt lat="45.50328" lon="6.39312">
        <ele>2092</ele>
        <time>2022-08-08T11:05:49Z</time>
      </trkpt>
      <trkpt lat="45.50324" lon="6.39318">
        <ele>2089</ele>
        <time>2022-08-08T11:05:56Z</time>
      </trkpt>
      <trkpt lat="45.50316" lon="6.39334">
        <ele>2084</ele>
        <time>2022-08-08T11:06:11Z</time>
      </trkpt>
      <trkpt lat="45.50305" lon="6.39347">
        <ele>2081</ele>
        <time>2022-08-08T11:06:22Z</time>
      </trkpt>
      <trkpt lat="45.50303" lon="6.39352">
        <ele>2080</ele>
        <time>2022-08-08T11:06:26Z</time>
      </trkpt>
      <trkpt lat="45.50301" lon="6.39357">
        <ele>2078</ele>
        <time>2022-08-08T11:06:31Z</time>
      </trkpt>
      <trkpt lat="45.50287" lon="6.39368">
        <ele>2074</ele>
        <time>2022-08-08T11:06:44Z</time>
      </trkpt>
      <trkpt lat="45.50284" lon="6.39373">
        <ele>2072</ele>
        <time>2022-08-08T11:06:48Z</time>
      </trkpt>
      <trkpt lat="45.50277" lon="6.39381">
        <ele>2069</ele>
        <time>2022-08-08T11:06:57Z</time>
      </trkpt>
      <trkpt lat="45.50267" lon="6.39386">
        <ele>2064</ele>
        <time>2022-08-08T11:07:09Z</time>
      </trkpt>
      <trkpt lat="45.50263" lon="6.3939">
        <ele>2063</ele>
        <time>2022-08-08T11:07:13Z</time>
      </trkpt>
      <trkpt lat="45.50255" lon="6.39401">
        <ele>2059</ele>
        <time>2022-08-08T11:07:25Z</time>
      </trkpt>
      <trkpt lat="45.50251" lon="6.39404">
        <ele>2058</ele>
        <time>2022-08-08T11:07:29Z</time>
      </trkpt>
      <trkpt lat="45.50247" lon="6.39415">
        <ele>2054</ele>
        <time>2022-08-08T11:07:41Z</time>
      </trkpt>
      <trkpt lat="45.50249" lon="6.39425">
        <ele>2050</ele>
        <time>2022-08-08T11:07:51Z</time>
      </trkpt>
      <trkpt lat="45.50247" lon="6.39433">
        <ele>2046</ele>
        <time>2022-08-08T11:08:01Z</time>
      </trkpt>
      <trkpt lat="45.50248" lon="6.39441">
        <ele>2043</ele>
        <time>2022-08-08T11:08:16Z</time>
      </trkpt>
      <trkpt lat="45.50245" lon="6.39449">
        <ele>2040</ele>
        <time>2022-08-08T11:08:26Z</time>
      </trkpt>
      <trkpt lat="45.50238" lon="6.39459">
        <ele>2036</ele>
        <time>2022-08-08T11:08:38Z</time>
      </trkpt>
      <trkpt lat="45.5024" lon="6.39465">
        <ele>2034</ele>
        <time>2022-08-08T11:08:48Z</time>
      </trkpt>
      <trkpt lat="45.50245" lon="6.39472">
        <ele>2030</ele>
        <time>2022-08-08T11:08:57Z</time>
      </trkpt>
      <trkpt lat="45.50242" lon="6.39479">
        <ele>2028</ele>
        <time>2022-08-08T11:09:06Z</time>
      </trkpt>
      <trkpt lat="45.50233" lon="6.39481">
        <ele>2025</ele>
        <time>2022-08-08T11:09:14Z</time>
      </trkpt>
      <trkpt lat="45.50227" lon="6.39486">
        <ele>2022</ele>
        <time>2022-08-08T11:09:23Z</time>
      </trkpt>
      <trkpt lat="45.50222" lon="6.39485">
        <ele>2020</ele>
        <time>2022-08-08T11:09:27Z</time>
      </trkpt>
      <trkpt lat="45.50219" lon="6.39482">
        <ele>2018</ele>
        <time>2022-08-08T11:09:32Z</time>
      </trkpt>
      <trkpt lat="45.50213" lon="6.39483">
        <ele>2015</ele>
        <time>2022-08-08T11:09:42Z</time>
      </trkpt>
      <trkpt lat="45.50209" lon="6.3948">
        <ele>2014</ele>
        <time>2022-08-08T11:09:46Z</time>
      </trkpt>
      <trkpt lat="45.50204" lon="6.39479">
        <ele>2013</ele>
        <time>2022-08-08T11:09:51Z</time>
      </trkpt>
      <trkpt lat="45.50199" lon="6.39481">
        <ele>2011</ele>
        <time>2022-08-08T11:09:58Z</time>
      </trkpt>
      <trkpt lat="45.50196" lon="6.39485">
        <ele>2010</ele>
        <time>2022-08-08T11:10:03Z</time>
      </trkpt>
      <trkpt lat="45.5019" lon="6.39485">
        <ele>2008</ele>
        <time>2022-08-08T11:10:07Z</time>
      </trkpt>
      <trkpt lat="45.50186" lon="6.39483">
        <ele>2007</ele>
        <time>2022-08-08T11:10:10Z</time>
      </trkpt>
      <trkpt lat="45.50181" lon="6.39478">
        <ele>2007</ele>
        <time>2022-08-08T11:10:15Z</time>
      </trkpt>
      <trkpt lat="45.50177" lon="6.39479">
        <ele>2006</ele>
        <time>2022-08-08T11:10:22Z</time>
      </trkpt>
      <trkpt lat="45.50172" lon="6.39477">
        <ele>2005</ele>
        <time>2022-08-08T11:10:27Z</time>
      </trkpt>
      <trkpt lat="45.50166" lon="6.39479">
        <ele>2004</ele>
        <time>2022-08-08T11:10:39Z</time>
      </trkpt>
      <trkpt lat="45.50164" lon="6.39485">
        <ele>2003</ele>
        <time>2022-08-08T11:10:44Z</time>
      </trkpt>
      <trkpt lat="45.50159" lon="6.39488">
        <ele>2001</ele>
        <time>2022-08-08T11:10:49Z</time>
      </trkpt>
      <trkpt lat="45.50156" lon="6.39492">
        <ele>2001</ele>
        <time>2022-08-08T11:10:53Z</time>
      </trkpt>
      <trkpt lat="45.50151" lon="6.39493">
        <ele>2001</ele>
        <time>2022-08-08T11:10:57Z</time>
      </trkpt>
      <trkpt lat="45.50147" lon="6.39495">
        <ele>2001</ele>
        <time>2022-08-08T11:11:01Z</time>
      </trkpt>
      <trkpt lat="45.50142" lon="6.395">
        <ele>2001</ele>
        <time>2022-08-08T11:11:06Z</time>
      </trkpt>
      <trkpt lat="45.50138" lon="6.39534">
        <ele>2004</ele>
        <time>2022-08-08T11:11:26Z</time>
      </trkpt>
      <trkpt lat="45.50136" lon="6.39539">
        <ele>2004</ele>
        <time>2022-08-08T11:11:30Z</time>
      </trkpt>
      <trkpt lat="45.50133" lon="6.39548">
        <ele>2005</ele>
        <time>2022-08-08T11:11:37Z</time>
      </trkpt>
      <trkpt lat="45.50133" lon="6.39554">
        <ele>2006</ele>
        <time>2022-08-08T11:11:40Z</time>
      </trkpt>
      <trkpt lat="45.50131" lon="6.3956">
        <ele>2006</ele>
        <time>2022-08-08T11:11:44Z</time>
      </trkpt>
      <trkpt lat="45.50128" lon="6.39565">
        <ele>2006</ele>
        <time>2022-08-08T11:11:49Z</time>
      </trkpt>
      <trkpt lat="45.50125" lon="6.39577">
        <ele>2007</ele>
        <time>2022-08-08T11:12:01Z</time>
      </trkpt>
      <trkpt lat="45.50115" lon="6.39591">
        <ele>2008</ele>
        <time>2022-08-08T11:12:13Z</time>
      </trkpt>
      <trkpt lat="45.50093" lon="6.39633">
        <ele>2011</ele>
        <time>2022-08-08T11:12:45Z</time>
      </trkpt>
      <trkpt lat="45.50091" lon="6.39638">
        <ele>2011</ele>
        <time>2022-08-08T11:12:49Z</time>
      </trkpt>
      <trkpt lat="45.50089" lon="6.39643">
        <ele>2011</ele>
        <time>2022-08-08T11:12:52Z</time>
      </trkpt>
      <trkpt lat="45.50085" lon="6.39649">
        <ele>2011</ele>
        <time>2022-08-08T11:13:10Z</time>
      </trkpt>
      <trkpt lat="45.5008" lon="6.39658">
        <ele>2011</ele>
        <time>2022-08-08T11:13:20Z</time>
      </trkpt>
      <trkpt lat="45.50076" lon="6.39662">
        <ele>2011</ele>
        <time>2022-08-08T11:13:22Z</time>
      </trkpt>
      <trkpt lat="45.50072" lon="6.39667">
        <ele>2011</ele>
        <time>2022-08-08T11:13:24Z</time>
      </trkpt>
      <trkpt lat="45.50068" lon="6.39674">
        <ele>2010</ele>
        <time>2022-08-08T11:13:26Z</time>
      </trkpt>
      <trkpt lat="45.5006" lon="6.3968">
        <ele>2010</ele>
        <time>2022-08-08T11:13:30Z</time>
      </trkpt>
      <trkpt lat="45.50048" lon="6.39696">
        <ele>2011</ele>
        <time>2022-08-08T11:13:37Z</time>
      </trkpt>
      <trkpt lat="45.50048" lon="6.39704">
        <ele>2011</ele>
        <time>2022-08-08T11:13:40Z</time>
      </trkpt>
      <trkpt lat="45.50044" lon="6.39716">
        <ele>2010</ele>
        <time>2022-08-08T11:13:46Z</time>
      </trkpt>
      <trkpt lat="45.50037" lon="6.39734">
        <ele>2011</ele>
        <time>2022-08-08T11:13:53Z</time>
      </trkpt>
      <trkpt lat="45.50033" lon="6.39739">
        <ele>2011</ele>
        <time>2022-08-08T11:13:55Z</time>
      </trkpt>
      <trkpt lat="45.50031" lon="6.39745">
        <ele>2011</ele>
        <time>2022-08-08T11:13:57Z</time>
      </trkpt>
      <trkpt lat="45.50027" lon="6.39751">
        <ele>2011</ele>
        <time>2022-08-08T11:13:59Z</time>
      </trkpt>
      <trkpt lat="45.50025" lon="6.39757">
        <ele>2010</ele>
        <time>2022-08-08T11:14:03Z</time>
      </trkpt>
      <trkpt lat="45.50021" lon="6.39762">
        <ele>2011</ele>
        <time>2022-08-08T11:14:08Z</time>
      </trkpt>
      <trkpt lat="45.50018" lon="6.39767">
        <ele>2012</ele>
        <time>2022-08-08T11:14:11Z</time>
      </trkpt>
      <trkpt lat="45.50005" lon="6.39792">
        <ele>2011</ele>
        <time>2022-08-08T11:14:22Z</time>
      </trkpt>
      <trkpt lat="45.50004" lon="6.39799">
        <ele>2011</ele>
        <time>2022-08-08T11:14:25Z</time>
      </trkpt>
      <trkpt lat="45.50001" lon="6.39808">
        <ele>2011</ele>
        <time>2022-08-08T11:14:28Z</time>
      </trkpt>
      <trkpt lat="45.49995" lon="6.39816">
        <ele>2010</ele>
        <time>2022-08-08T11:14:32Z</time>
      </trkpt>
      <trkpt lat="45.49988" lon="6.39841">
        <ele>2011</ele>
        <time>2022-08-08T11:14:46Z</time>
      </trkpt>
      <trkpt lat="45.49984" lon="6.39846">
        <ele>2012</ele>
        <time>2022-08-08T11:14:53Z</time>
      </trkpt>
      <trkpt lat="45.49986" lon="6.39854">
        <ele>2013</ele>
        <time>2022-08-08T11:14:58Z</time>
      </trkpt>
      <trkpt lat="45.49986" lon="6.39862">
        <ele>2012</ele>
        <time>2022-08-08T11:15:02Z</time>
      </trkpt>
      <trkpt lat="45.49984" lon="6.39868">
        <ele>2012</ele>
        <time>2022-08-08T11:15:05Z</time>
      </trkpt>
      <trkpt lat="45.49981" lon="6.39874">
        <ele>2012</ele>
        <time>2022-08-08T11:15:08Z</time>
      </trkpt>
      <trkpt lat="45.4998" lon="6.39883">
        <ele>2013</ele>
        <time>2022-08-08T11:15:11Z</time>
      </trkpt>
      <trkpt lat="45.49974" lon="6.399">
        <ele>2013</ele>
        <time>2022-08-08T11:15:18Z</time>
      </trkpt>
      <trkpt lat="45.49967" lon="6.39916">
        <ele>2015</ele>
        <time>2022-08-08T11:15:28Z</time>
      </trkpt>
      <trkpt lat="45.49965" lon="6.39922">
        <ele>2015</ele>
        <time>2022-08-08T11:15:32Z</time>
      </trkpt>
      <trkpt lat="45.49962" lon="6.39927">
        <ele>2015</ele>
        <time>2022-08-08T11:15:36Z</time>
      </trkpt>
      <trkpt lat="45.49959" lon="6.39939">
        <ele>2016</ele>
        <time>2022-08-08T11:15:42Z</time>
      </trkpt>
      <trkpt lat="45.49959" lon="6.39947">
        <ele>2016</ele>
        <time>2022-08-08T11:15:45Z</time>
      </trkpt>
      <trkpt lat="45.49956" lon="6.39955">
        <ele>2015</ele>
        <time>2022-08-08T11:15:48Z</time>
      </trkpt>
      <trkpt lat="45.49956" lon="6.39965">
        <ele>2015</ele>
        <time>2022-08-08T11:15:53Z</time>
      </trkpt>
      <trkpt lat="45.49957" lon="6.39972">
        <ele>2015</ele>
        <time>2022-08-08T11:15:57Z</time>
      </trkpt>
      <trkpt lat="45.49957" lon="6.39979">
        <ele>2014</ele>
        <time>2022-08-08T11:16:01Z</time>
      </trkpt>
      <trkpt lat="45.49955" lon="6.39986">
        <ele>2014</ele>
        <time>2022-08-08T11:16:04Z</time>
      </trkpt>
      <trkpt lat="45.49956" lon="6.39993">
        <ele>2014</ele>
        <time>2022-08-08T11:16:07Z</time>
      </trkpt>
      <trkpt lat="45.49957" lon="6.39999">
        <ele>2014</ele>
        <time>2022-08-08T11:16:09Z</time>
      </trkpt>
      <trkpt lat="45.49964" lon="6.40016">
        <ele>2014</ele>
        <time>2022-08-08T11:16:16Z</time>
      </trkpt>
      <trkpt lat="45.4997" lon="6.40031">
        <ele>2017</ele>
        <time>2022-08-08T11:16:23Z</time>
      </trkpt>
      <trkpt lat="45.49971" lon="6.4004">
        <ele>2017</ele>
        <time>2022-08-08T11:16:29Z</time>
      </trkpt>
      <trkpt lat="45.4997" lon="6.40065">
        <ele>2013</ele>
        <time>2022-08-08T11:16:42Z</time>
      </trkpt>
      <trkpt lat="45.49969" lon="6.40071">
        <ele>2013</ele>
        <time>2022-08-08T11:16:47Z</time>
      </trkpt>
      <trkpt lat="45.49969" lon="6.40081">
        <ele>2016</ele>
        <time>2022-08-08T11:16:56Z</time>
      </trkpt>
      <trkpt lat="45.4997" lon="6.40094">
        <ele>2016</ele>
        <time>2022-08-08T11:17:04Z</time>
      </trkpt>
      <trkpt lat="45.4997" lon="6.40109">
        <ele>2016</ele>
        <time>2022-08-08T11:17:12Z</time>
      </trkpt>
      <trkpt lat="45.49968" lon="6.40122">
        <ele>2015</ele>
        <time>2022-08-08T11:17:20Z</time>
      </trkpt>
      <trkpt lat="45.49963" lon="6.40133">
        <ele>2011</ele>
        <time>2022-08-08T11:17:32Z</time>
      </trkpt>
      <trkpt lat="45.49959" lon="6.40135">
        <ele>2010</ele>
        <time>2022-08-08T11:17:36Z</time>
      </trkpt>
      <trkpt lat="45.49954" lon="6.40134">
        <ele>2009</ele>
        <time>2022-08-08T11:17:40Z</time>
      </trkpt>
      <trkpt lat="45.4995" lon="6.40135">
        <ele>2008</ele>
        <time>2022-08-08T11:17:44Z</time>
      </trkpt>
      <trkpt lat="45.49944" lon="6.40133">
        <ele>2008</ele>
        <time>2022-08-08T11:17:47Z</time>
      </trkpt>
      <trkpt lat="45.49928" lon="6.40118">
        <ele>2006</ele>
        <time>2022-08-08T11:18:02Z</time>
      </trkpt>
      <trkpt lat="45.49923" lon="6.40115">
        <ele>2004</ele>
        <time>2022-08-08T11:18:08Z</time>
      </trkpt>
      <trkpt lat="45.4991" lon="6.40127">
        <ele>1998</ele>
        <time>2022-08-08T11:18:26Z</time>
      </trkpt>
      <trkpt lat="45.49908" lon="6.40135">
        <ele>1993</ele>
        <time>2022-08-08T11:18:39Z</time>
      </trkpt>
      <trkpt lat="45.49909" lon="6.40141">
        <ele>1990</ele>
        <time>2022-08-08T11:18:48Z</time>
      </trkpt>
      <trkpt lat="45.49921" lon="6.40152">
        <ele>1986</ele>
        <time>2022-08-08T11:19:00Z</time>
      </trkpt>
      <trkpt lat="45.49912" lon="6.4016">
        <ele>1981</ele>
        <time>2022-08-08T11:19:10Z</time>
      </trkpt>
      <trkpt lat="45.49909" lon="6.40165">
        <ele>1979</ele>
        <time>2022-08-08T11:19:15Z</time>
      </trkpt>
      <trkpt lat="45.49899" lon="6.40169">
        <ele>1975</ele>
        <time>2022-08-08T11:19:23Z</time>
      </trkpt>
      <trkpt lat="45.49891" lon="6.40177">
        <ele>1973</ele>
        <time>2022-08-08T11:19:31Z</time>
      </trkpt>
      <trkpt lat="45.49887" lon="6.4018">
        <ele>1973</ele>
        <time>2022-08-08T11:19:34Z</time>
      </trkpt>
      <trkpt lat="45.49882" lon="6.4018">
        <ele>1972</ele>
        <time>2022-08-08T11:19:38Z</time>
      </trkpt>
      <trkpt lat="45.49872" lon="6.40175">
        <ele>1969</ele>
        <time>2022-08-08T11:19:48Z</time>
      </trkpt>
      <trkpt lat="45.49868" lon="6.40173">
        <ele>1969</ele>
        <time>2022-08-08T11:19:52Z</time>
      </trkpt>
      <trkpt lat="45.49856" lon="6.4017">
        <ele>1973</ele>
        <time>2022-08-08T11:20:10Z</time>
      </trkpt>
      <trkpt lat="45.49845" lon="6.40171">
        <ele>1973</ele>
        <time>2022-08-08T11:20:21Z</time>
      </trkpt>
      <trkpt lat="45.49841" lon="6.40175">
        <ele>1972</ele>
        <time>2022-08-08T11:20:25Z</time>
      </trkpt>
      <trkpt lat="45.49836" lon="6.40176">
        <ele>1972</ele>
        <time>2022-08-08T11:20:30Z</time>
      </trkpt>
      <trkpt lat="45.49831" lon="6.40179">
        <ele>1972</ele>
        <time>2022-08-08T11:20:35Z</time>
      </trkpt>
      <trkpt lat="45.49827" lon="6.40179">
        <ele>1972</ele>
        <time>2022-08-08T11:20:39Z</time>
      </trkpt>
      <trkpt lat="45.49818" lon="6.40185">
        <ele>1972</ele>
        <time>2022-08-08T11:20:49Z</time>
      </trkpt>
      <trkpt lat="45.49814" lon="6.40187">
        <ele>1972</ele>
        <time>2022-08-08T11:20:53Z</time>
      </trkpt>
      <trkpt lat="45.49805" lon="6.40185">
        <ele>1973</ele>
        <time>2022-08-08T11:21:01Z</time>
      </trkpt>
      <trkpt lat="45.49799" lon="6.40189">
        <ele>1973</ele>
        <time>2022-08-08T11:21:05Z</time>
      </trkpt>
      <trkpt lat="45.49787" lon="6.40202">
        <ele>1973</ele>
        <time>2022-08-08T11:21:19Z</time>
      </trkpt>
      <trkpt lat="45.49781" lon="6.40209">
        <ele>1972</ele>
        <time>2022-08-08T11:21:25Z</time>
      </trkpt>
      <trkpt lat="45.4977" lon="6.40202">
        <ele>1975</ele>
        <time>2022-08-08T11:21:40Z</time>
      </trkpt>
      <trkpt lat="45.49742" lon="6.40198">
        <ele>1976</ele>
        <time>2022-08-08T11:21:57Z</time>
      </trkpt>
      <trkpt lat="45.49727" lon="6.40187">
        <ele>1979</ele>
        <time>2022-08-08T11:22:14Z</time>
      </trkpt>
      <trkpt lat="45.49721" lon="6.40176">
        <ele>1980</ele>
        <time>2022-08-08T11:22:23Z</time>
      </trkpt>
      <trkpt lat="45.49719" lon="6.4017">
        <ele>1981</ele>
        <time>2022-08-08T11:22:27Z</time>
      </trkpt>
      <trkpt lat="45.49715" lon="6.40163">
        <ele>1980</ele>
        <time>2022-08-08T11:22:34Z</time>
      </trkpt>
      <trkpt lat="45.49712" lon="6.4016">
        <ele>1979</ele>
        <time>2022-08-08T11:22:37Z</time>
      </trkpt>
      <trkpt lat="45.49704" lon="6.40156">
        <ele>1978</ele>
        <time>2022-08-08T11:22:49Z</time>
      </trkpt>
      <trkpt lat="45.49701" lon="6.40162">
        <ele>1978</ele>
        <time>2022-08-08T11:22:56Z</time>
      </trkpt>
      <trkpt lat="45.49699" lon="6.40169">
        <ele>1977</ele>
        <time>2022-08-08T11:23:00Z</time>
      </trkpt>
      <trkpt lat="45.49695" lon="6.40171">
        <ele>1977</ele>
        <time>2022-08-08T11:23:04Z</time>
      </trkpt>
      <trkpt lat="45.49692" lon="6.40176">
        <ele>1978</ele>
        <time>2022-08-08T11:23:08Z</time>
      </trkpt>
      <trkpt lat="45.49688" lon="6.40186">
        <ele>1978</ele>
        <time>2022-08-08T11:23:17Z</time>
      </trkpt>
      <trkpt lat="45.49684" lon="6.40194">
        <ele>1977</ele>
        <time>2022-08-08T11:23:24Z</time>
      </trkpt>
      <trkpt lat="45.49683" lon="6.402">
        <ele>1976</ele>
        <time>2022-08-08T11:23:28Z</time>
      </trkpt>
      <trkpt lat="45.49683" lon="6.40208">
        <ele>1975</ele>
        <time>2022-08-08T11:23:33Z</time>
      </trkpt>
      <trkpt lat="45.49686" lon="6.4022">
        <ele>1975</ele>
        <time>2022-08-08T11:23:40Z</time>
      </trkpt>
      <trkpt lat="45.49686" lon="6.40235">
        <ele>1975</ele>
        <time>2022-08-08T11:23:48Z</time>
      </trkpt>
      <trkpt lat="45.49687" lon="6.40241">
        <ele>1975</ele>
        <time>2022-08-08T11:23:52Z</time>
      </trkpt>
      <trkpt lat="45.4969" lon="6.40247">
        <ele>1974</ele>
        <time>2022-08-08T11:23:55Z</time>
      </trkpt>
      <trkpt lat="45.4969" lon="6.40258">
        <ele>1973</ele>
        <time>2022-08-08T11:24:07Z</time>
      </trkpt>
      <trkpt lat="45.49689" lon="6.40264">
        <ele>1974</ele>
        <time>2022-08-08T11:24:09Z</time>
      </trkpt>
      <trkpt lat="45.49685" lon="6.40267">
        <ele>1976</ele>
        <time>2022-08-08T11:24:17Z</time>
      </trkpt>
      <trkpt lat="45.4968" lon="6.40273">
        <ele>1979</ele>
        <time>2022-08-08T11:24:27Z</time>
      </trkpt>
      <trkpt lat="45.49676" lon="6.40278">
        <ele>1981</ele>
        <time>2022-08-08T11:24:37Z</time>
      </trkpt>
      <trkpt lat="45.49673" lon="6.40286">
        <ele>1983</ele>
        <time>2022-08-08T11:24:47Z</time>
      </trkpt>
      <trkpt lat="45.49668" lon="6.40285">
        <ele>1985</ele>
        <time>2022-08-08T11:24:57Z</time>
      </trkpt>
      <trkpt lat="45.49664" lon="6.40287">
        <ele>1989</ele>
        <time>2022-08-08T11:25:12Z</time>
      </trkpt>
      <trkpt lat="45.49647" lon="6.40289">
        <ele>1994</ele>
        <time>2022-08-08T11:25:37Z</time>
      </trkpt>
      <trkpt lat="45.49644" lon="6.40293">
        <ele>1995</ele>
        <time>2022-08-08T11:25:45Z</time>
      </trkpt>
      <trkpt lat="45.49635" lon="6.40292">
        <ele>1997</ele>
        <time>2022-08-08T11:25:55Z</time>
      </trkpt>
      <trkpt lat="45.49629" lon="6.40287">
        <ele>1999</ele>
        <time>2022-08-08T11:26:08Z</time>
      </trkpt>
      <trkpt lat="45.49624" lon="6.4029">
        <ele>1999</ele>
        <time>2022-08-08T11:26:13Z</time>
      </trkpt>
      <trkpt lat="45.4962" lon="6.40291">
        <ele>1998</ele>
        <time>2022-08-08T11:26:18Z</time>
      </trkpt>
      <trkpt lat="45.49615" lon="6.40293">
        <ele>1998</ele>
        <time>2022-08-08T11:26:22Z</time>
      </trkpt>
      <trkpt lat="45.49613" lon="6.403">
        <ele>1998</ele>
        <time>2022-08-08T11:26:26Z</time>
      </trkpt>
      <trkpt lat="45.49608" lon="6.40316">
        <ele>2002</ele>
        <time>2022-08-08T11:26:43Z</time>
      </trkpt>
      <trkpt lat="45.49602" lon="6.40321">
        <ele>2004</ele>
        <time>2022-08-08T11:26:53Z</time>
      </trkpt>
      <trkpt lat="45.49593" lon="6.40322">
        <ele>2006</ele>
        <time>2022-08-08T11:27:03Z</time>
      </trkpt>
      <trkpt lat="45.49589" lon="6.40321">
        <ele>2006</ele>
        <time>2022-08-08T11:27:07Z</time>
      </trkpt>
      <trkpt lat="45.49583" lon="6.40322">
        <ele>2006</ele>
        <time>2022-08-08T11:27:11Z</time>
      </trkpt>
      <trkpt lat="45.49578" lon="6.40319">
        <ele>2007</ele>
        <time>2022-08-08T11:27:18Z</time>
      </trkpt>
      <trkpt lat="45.49573" lon="6.40321">
        <ele>2008</ele>
        <time>2022-08-08T11:27:23Z</time>
      </trkpt>
      <trkpt lat="45.49568" lon="6.40318">
        <ele>2009</ele>
        <time>2022-08-08T11:27:27Z</time>
      </trkpt>
      <trkpt lat="45.49564" lon="6.40318">
        <ele>2009</ele>
        <time>2022-08-08T11:27:31Z</time>
      </trkpt>
      <trkpt lat="45.49558" lon="6.40316">
        <ele>2009</ele>
        <time>2022-08-08T11:27:35Z</time>
      </trkpt>
      <trkpt lat="45.49554" lon="6.40313">
        <ele>2008</ele>
        <time>2022-08-08T11:27:39Z</time>
      </trkpt>
      <trkpt lat="45.4955" lon="6.40311">
        <ele>2008</ele>
        <time>2022-08-08T11:27:43Z</time>
      </trkpt>
      <trkpt lat="45.49545" lon="6.40313">
        <ele>2008</ele>
        <time>2022-08-08T11:27:47Z</time>
      </trkpt>
      <trkpt lat="45.49544" lon="6.4032">
        <ele>2009</ele>
        <time>2022-08-08T11:27:51Z</time>
      </trkpt>
      <trkpt lat="45.49545" lon="6.40326">
        <ele>2012</ele>
        <time>2022-08-08T11:27:59Z</time>
      </trkpt>
      <trkpt lat="45.49551" lon="6.40336">
        <ele>2012</ele>
        <time>2022-08-08T11:28:09Z</time>
      </trkpt>
      <trkpt lat="45.49548" lon="6.40344">
        <ele>2011</ele>
        <time>2022-08-08T11:28:26Z</time>
      </trkpt>
      <trkpt lat="45.49546" lon="6.40349">
        <ele>2011</ele>
        <time>2022-08-08T11:28:31Z</time>
      </trkpt>
      <trkpt lat="45.49535" lon="6.40354">
        <ele>2011</ele>
        <time>2022-08-08T11:28:38Z</time>
      </trkpt>
      <trkpt lat="45.49533" lon="6.4036">
        <ele>2012</ele>
        <time>2022-08-08T11:28:40Z</time>
      </trkpt>
      <trkpt lat="45.4953" lon="6.40364">
        <ele>2013</ele>
        <time>2022-08-08T11:28:43Z</time>
      </trkpt>
      <trkpt lat="45.49527" lon="6.40374">
        <ele>2014</ele>
        <time>2022-08-08T11:28:50Z</time>
      </trkpt>
      <trkpt lat="45.49529" lon="6.4038">
        <ele>2014</ele>
        <time>2022-08-08T11:28:53Z</time>
      </trkpt>
      <trkpt lat="45.4953" lon="6.40388">
        <ele>2014</ele>
        <time>2022-08-08T11:28:57Z</time>
      </trkpt>
      <trkpt lat="45.49528" lon="6.40395">
        <ele>2014</ele>
        <time>2022-08-08T11:29:06Z</time>
      </trkpt>
      <trkpt lat="45.49523" lon="6.40403">
        <ele>2014</ele>
        <time>2022-08-08T11:30:59Z</time>
      </trkpt>
      <trkpt lat="45.49515" lon="6.40412">
        <ele>2012</ele>
        <time>2022-08-08T11:31:06Z</time>
      </trkpt>
      <trkpt lat="45.4951" lon="6.40415">
        <ele>2012</ele>
        <time>2022-08-08T11:31:09Z</time>
      </trkpt>
      <trkpt lat="45.49503" lon="6.40416">
        <ele>2011</ele>
        <time>2022-08-08T11:31:12Z</time>
      </trkpt>
      <trkpt lat="45.495" lon="6.40419">
        <ele>2011</ele>
        <time>2022-08-08T11:31:14Z</time>
      </trkpt>
      <trkpt lat="45.49495" lon="6.40425">
        <ele>2011</ele>
        <time>2022-08-08T11:31:16Z</time>
      </trkpt>
      <trkpt lat="45.49495" lon="6.40432">
        <ele>2011</ele>
        <time>2022-08-08T11:31:18Z</time>
      </trkpt>
      <trkpt lat="45.49489" lon="6.40438">
        <ele>2010</ele>
        <time>2022-08-08T11:31:22Z</time>
      </trkpt>
      <trkpt lat="45.49485" lon="6.40441">
        <ele>2010</ele>
        <time>2022-08-08T11:31:24Z</time>
      </trkpt>
      <trkpt lat="45.49482" lon="6.40446">
        <ele>2010</ele>
        <time>2022-08-08T11:31:26Z</time>
      </trkpt>
      <trkpt lat="45.49477" lon="6.40465">
        <ele>2009</ele>
        <time>2022-08-08T11:31:32Z</time>
      </trkpt>
      <trkpt lat="45.49471" lon="6.4048">
        <ele>2010</ele>
        <time>2022-08-08T11:31:38Z</time>
      </trkpt>
      <trkpt lat="45.49467" lon="6.40485">
        <ele>2010</ele>
        <time>2022-08-08T11:31:41Z</time>
      </trkpt>
      <trkpt lat="45.49461" lon="6.40496">
        <ele>2009</ele>
        <time>2022-08-08T11:31:46Z</time>
      </trkpt>
      <trkpt lat="45.49451" lon="6.40504">
        <ele>2008</ele>
        <time>2022-08-08T11:31:51Z</time>
      </trkpt>
      <trkpt lat="45.49439" lon="6.40515">
        <ele>2007</ele>
        <time>2022-08-08T11:31:57Z</time>
      </trkpt>
      <trkpt lat="45.49433" lon="6.40518">
        <ele>2006</ele>
        <time>2022-08-08T11:32:00Z</time>
      </trkpt>
      <trkpt lat="45.49428" lon="6.40524">
        <ele>2006</ele>
        <time>2022-08-08T11:32:06Z</time>
      </trkpt>
      <trkpt lat="45.49423" lon="6.40526">
        <ele>2006</ele>
        <time>2022-08-08T11:32:10Z</time>
      </trkpt>
      <trkpt lat="45.49414" lon="6.40531">
        <ele>2006</ele>
        <time>2022-08-08T11:32:19Z</time>
      </trkpt>
      <trkpt lat="45.4941" lon="6.40537">
        <ele>2007</ele>
        <time>2022-08-08T11:32:23Z</time>
      </trkpt>
      <trkpt lat="45.49406" lon="6.40545">
        <ele>2006</ele>
        <time>2022-08-08T11:32:35Z</time>
      </trkpt>
      <trkpt lat="45.49402" lon="6.40552">
        <ele>2007</ele>
        <time>2022-08-08T11:32:38Z</time>
      </trkpt>
      <trkpt lat="45.49398" lon="6.40556">
        <ele>2007</ele>
        <time>2022-08-08T11:32:40Z</time>
      </trkpt>
      <trkpt lat="45.49395" lon="6.40563">
        <ele>2007</ele>
        <time>2022-08-08T11:32:42Z</time>
      </trkpt>
      <trkpt lat="45.49391" lon="6.4057">
        <ele>2007</ele>
        <time>2022-08-08T11:32:45Z</time>
      </trkpt>
      <trkpt lat="45.49387" lon="6.4057">
        <ele>2007</ele>
        <time>2022-08-08T11:32:47Z</time>
      </trkpt>
      <trkpt lat="45.49382" lon="6.40574">
        <ele>2007</ele>
        <time>2022-08-08T11:32:50Z</time>
      </trkpt>
      <trkpt lat="45.49373" lon="6.40578">
        <ele>2006</ele>
        <time>2022-08-08T11:32:54Z</time>
      </trkpt>
      <trkpt lat="45.49357" lon="6.40604">
        <ele>2004</ele>
        <time>2022-08-08T11:33:04Z</time>
      </trkpt>
      <trkpt lat="45.49349" lon="6.40613">
        <ele>2004</ele>
        <time>2022-08-08T11:33:08Z</time>
      </trkpt>
      <trkpt lat="45.49348" lon="6.4062">
        <ele>2004</ele>
        <time>2022-08-08T11:33:10Z</time>
      </trkpt>
      <trkpt lat="45.49343" lon="6.40632">
        <ele>2004</ele>
        <time>2022-08-08T11:33:14Z</time>
      </trkpt>
      <trkpt lat="45.4934" lon="6.40635">
        <ele>2004</ele>
        <time>2022-08-08T11:33:16Z</time>
      </trkpt>
      <trkpt lat="45.49333" lon="6.40656">
        <ele>2004</ele>
        <time>2022-08-08T11:33:24Z</time>
      </trkpt>
      <trkpt lat="45.49331" lon="6.40662">
        <ele>2004</ele>
        <time>2022-08-08T11:33:26Z</time>
      </trkpt>
      <trkpt lat="45.49316" lon="6.40699">
        <ele>2001</ele>
        <time>2022-08-08T11:33:41Z</time>
      </trkpt>
      <trkpt lat="45.49312" lon="6.40707">
        <ele>1999</ele>
        <time>2022-08-08T11:33:51Z</time>
      </trkpt>
      <trkpt lat="45.49294" lon="6.40713">
        <ele>1995</ele>
        <time>2022-08-08T11:34:05Z</time>
      </trkpt>
      <trkpt lat="45.49284" lon="6.40715">
        <ele>1994</ele>
        <time>2022-08-08T11:34:09Z</time>
      </trkpt>
      <trkpt lat="45.49279" lon="6.40719">
        <ele>1994</ele>
        <time>2022-08-08T11:34:11Z</time>
      </trkpt>
      <trkpt lat="45.49278" lon="6.40725">
        <ele>1993</ele>
        <time>2022-08-08T11:34:15Z</time>
      </trkpt>
      <trkpt lat="45.49276" lon="6.4073">
        <ele>1992</ele>
        <time>2022-08-08T11:34:19Z</time>
      </trkpt>
      <trkpt lat="45.49274" lon="6.40737">
        <ele>1991</ele>
        <time>2022-08-08T11:34:23Z</time>
      </trkpt>
      <trkpt lat="45.49267" lon="6.40746">
        <ele>1989</ele>
        <time>2022-08-08T11:34:29Z</time>
      </trkpt>
      <trkpt lat="45.49259" lon="6.40759">
        <ele>1988</ele>
        <time>2022-08-08T11:34:37Z</time>
      </trkpt>
      <trkpt lat="45.49255" lon="6.4076">
        <ele>1987</ele>
        <time>2022-08-08T11:34:39Z</time>
      </trkpt>
      <trkpt lat="45.49246" lon="6.40765">
        <ele>1986</ele>
        <time>2022-08-08T11:34:45Z</time>
      </trkpt>
      <trkpt lat="45.49236" lon="6.40764">
        <ele>1984</ele>
        <time>2022-08-08T11:34:50Z</time>
      </trkpt>
      <trkpt lat="45.49219" lon="6.40756">
        <ele>1982</ele>
        <time>2022-08-08T11:35:01Z</time>
      </trkpt>
      <trkpt lat="45.4921" lon="6.40747">
        <ele>1982</ele>
        <time>2022-08-08T11:35:07Z</time>
      </trkpt>
      <trkpt lat="45.49207" lon="6.40743">
        <ele>1982</ele>
        <time>2022-08-08T11:35:10Z</time>
      </trkpt>
      <trkpt lat="45.49203" lon="6.40738">
        <ele>1982</ele>
        <time>2022-08-08T11:35:14Z</time>
      </trkpt>
      <trkpt lat="45.49196" lon="6.40733">
        <ele>1982</ele>
        <time>2022-08-08T11:35:18Z</time>
      </trkpt>
      <trkpt lat="45.49188" lon="6.40727">
        <ele>1981</ele>
        <time>2022-08-08T11:35:22Z</time>
      </trkpt>
      <trkpt lat="45.49179" lon="6.40725">
        <ele>1980</ele>
        <time>2022-08-08T11:35:27Z</time>
      </trkpt>
      <trkpt lat="45.49169" lon="6.40723">
        <ele>1978</ele>
        <time>2022-08-08T11:35:32Z</time>
      </trkpt>
      <trkpt lat="45.4916" lon="6.40726">
        <ele>1977</ele>
        <time>2022-08-08T11:35:38Z</time>
      </trkpt>
      <trkpt lat="45.49155" lon="6.40727">
        <ele>1976</ele>
        <time>2022-08-08T11:35:41Z</time>
      </trkpt>
      <trkpt lat="45.49149" lon="6.40727">
        <ele>1976</ele>
        <time>2022-08-08T11:35:44Z</time>
      </trkpt>
      <trkpt lat="45.49142" lon="6.40732">
        <ele>1975</ele>
        <time>2022-08-08T11:35:49Z</time>
      </trkpt>
      <trkpt lat="45.49136" lon="6.4073">
        <ele>1974</ele>
        <time>2022-08-08T11:35:53Z</time>
      </trkpt>
      <trkpt lat="45.49131" lon="6.4073">
        <ele>1973</ele>
        <time>2022-08-08T11:35:55Z</time>
      </trkpt>
      <trkpt lat="45.49105" lon="6.40739">
        <ele>1971</ele>
        <time>2022-08-08T11:36:07Z</time>
      </trkpt>
      <trkpt lat="45.49095" lon="6.40741">
        <ele>1970</ele>
        <time>2022-08-08T11:36:12Z</time>
      </trkpt>
      <trkpt lat="45.49086" lon="6.40744">
        <ele>1970</ele>
        <time>2022-08-08T11:36:16Z</time>
      </trkpt>
      <trkpt lat="45.49082" lon="6.40748">
        <ele>1969</ele>
        <time>2022-08-08T11:36:18Z</time>
      </trkpt>
      <trkpt lat="45.49058" lon="6.40752">
        <ele>1967</ele>
        <time>2022-08-08T11:36:31Z</time>
      </trkpt>
      <trkpt lat="45.49052" lon="6.40759">
        <ele>1966</ele>
        <time>2022-08-08T11:36:38Z</time>
      </trkpt>
      <trkpt lat="45.4905" lon="6.40769">
        <ele>1965</ele>
        <time>2022-08-08T11:36:42Z</time>
      </trkpt>
      <trkpt lat="45.49047" lon="6.40791">
        <ele>1964</ele>
        <time>2022-08-08T11:36:49Z</time>
      </trkpt>
      <trkpt lat="45.49045" lon="6.40797">
        <ele>1964</ele>
        <time>2022-08-08T11:36:51Z</time>
      </trkpt>
      <trkpt lat="45.4903" lon="6.40805">
        <ele>1963</ele>
        <time>2022-08-08T11:36:59Z</time>
      </trkpt>
      <trkpt lat="45.49016" lon="6.40804">
        <ele>1962</ele>
        <time>2022-08-08T11:37:05Z</time>
      </trkpt>
      <trkpt lat="45.49012" lon="6.40808">
        <ele>1962</ele>
        <time>2022-08-08T11:37:07Z</time>
      </trkpt>
      <trkpt lat="45.48995" lon="6.40835">
        <ele>1961</ele>
        <time>2022-08-08T11:37:18Z</time>
      </trkpt>
      <trkpt lat="45.48989" lon="6.40845">
        <ele>1961</ele>
        <time>2022-08-08T11:37:22Z</time>
      </trkpt>
      <trkpt lat="45.4898" lon="6.40856">
        <ele>1960</ele>
        <time>2022-08-08T11:37:30Z</time>
      </trkpt>
      <trkpt lat="45.48971" lon="6.40861">
        <ele>1959</ele>
        <time>2022-08-08T11:37:38Z</time>
      </trkpt>
      <trkpt lat="45.48972" lon="6.4088">
        <ele>1956</ele>
        <time>2022-08-08T11:38:03Z</time>
      </trkpt>
      <trkpt lat="45.48969" lon="6.40887">
        <ele>1954</ele>
        <time>2022-08-08T11:38:06Z</time>
      </trkpt>
      <trkpt lat="45.48966" lon="6.40892">
        <ele>1953</ele>
        <time>2022-08-08T11:38:08Z</time>
      </trkpt>
      <trkpt lat="45.48958" lon="6.40906">
        <ele>1953</ele>
        <time>2022-08-08T11:38:14Z</time>
      </trkpt>
      <trkpt lat="45.4894" lon="6.40939">
        <ele>1953</ele>
        <time>2022-08-08T11:38:30Z</time>
      </trkpt>
      <trkpt lat="45.48935" lon="6.40944">
        <ele>1952</ele>
        <time>2022-08-08T11:38:35Z</time>
      </trkpt>
      <trkpt lat="45.48932" lon="6.40953">
        <ele>1952</ele>
        <time>2022-08-08T11:38:39Z</time>
      </trkpt>
      <trkpt lat="45.48909" lon="6.40979">
        <ele>1952</ele>
        <time>2022-08-08T11:38:51Z</time>
      </trkpt>
      <trkpt lat="45.48895" lon="6.41007">
        <ele>1952</ele>
        <time>2022-08-08T11:39:01Z</time>
      </trkpt>
      <trkpt lat="45.48891" lon="6.4101">
        <ele>1953</ele>
        <time>2022-08-08T11:39:03Z</time>
      </trkpt>
      <trkpt lat="45.48871" lon="6.41012">
        <ele>1952</ele>
        <time>2022-08-08T11:39:11Z</time>
      </trkpt>
      <trkpt lat="45.48856" lon="6.41006">
        <ele>1952</ele>
        <time>2022-08-08T11:39:17Z</time>
      </trkpt>
      <trkpt lat="45.4883" lon="6.41004">
        <ele>1951</ele>
        <time>2022-08-08T11:39:27Z</time>
      </trkpt>
      <trkpt lat="45.48824" lon="6.41002">
        <ele>1950</ele>
        <time>2022-08-08T11:39:32Z</time>
      </trkpt>
      <trkpt lat="45.48805" lon="6.41002">
        <ele>1950</ele>
        <time>2022-08-08T11:39:47Z</time>
      </trkpt>
      <trkpt lat="45.48792" lon="6.40998">
        <ele>1949</ele>
        <time>2022-08-08T11:39:53Z</time>
      </trkpt>
      <trkpt lat="45.48776" lon="6.40992">
        <ele>1948</ele>
        <time>2022-08-08T11:39:59Z</time>
      </trkpt>
      <trkpt lat="45.48762" lon="6.40978">
        <ele>1946</ele>
        <time>2022-08-08T11:40:08Z</time>
      </trkpt>
      <trkpt lat="45.48755" lon="6.40968">
        <ele>1946</ele>
        <time>2022-08-08T11:40:16Z</time>
      </trkpt>
      <trkpt lat="45.48751" lon="6.40955">
        <ele>1945</ele>
        <time>2022-08-08T11:40:23Z</time>
      </trkpt>
      <trkpt lat="45.48745" lon="6.40917">
        <ele>1945</ele>
        <time>2022-08-08T11:40:35Z</time>
      </trkpt>
      <trkpt lat="45.48738" lon="6.40896">
        <ele>1944</ele>
        <time>2022-08-08T11:40:41Z</time>
      </trkpt>
      <trkpt lat="45.48735" lon="6.40855">
        <ele>1942</ele>
        <time>2022-08-08T11:40:53Z</time>
      </trkpt>
      <trkpt lat="45.48734" lon="6.40814">
        <ele>1939</ele>
        <time>2022-08-08T11:41:05Z</time>
      </trkpt>
      <trkpt lat="45.48733" lon="6.40804">
        <ele>1938</ele>
        <time>2022-08-08T11:41:08Z</time>
      </trkpt>
      <trkpt lat="45.48726" lon="6.40804">
        <ele>1938</ele>
        <time>2022-08-08T11:41:10Z</time>
      </trkpt>
      <trkpt lat="45.48725" lon="6.40813">
        <ele>1938</ele>
        <time>2022-08-08T11:41:12Z</time>
      </trkpt>
      <trkpt lat="45.48722" lon="6.40819">
        <ele>1937</ele>
        <time>2022-08-08T11:41:14Z</time>
      </trkpt>
      <trkpt lat="45.4872" lon="6.40826">
        <ele>1937</ele>
        <time>2022-08-08T11:41:16Z</time>
      </trkpt>
      <trkpt lat="45.48719" lon="6.40832">
        <ele>1936</ele>
        <time>2022-08-08T11:41:18Z</time>
      </trkpt>
      <trkpt lat="45.48718" lon="6.40852">
        <ele>1935</ele>
        <time>2022-08-08T11:41:24Z</time>
      </trkpt>
      <trkpt lat="45.48714" lon="6.40868">
        <ele>1934</ele>
        <time>2022-08-08T11:41:29Z</time>
      </trkpt>
      <trkpt lat="45.48711" lon="6.40876">
        <ele>1933</ele>
        <time>2022-08-08T11:41:32Z</time>
      </trkpt>
      <trkpt lat="45.48705" lon="6.4088">
        <ele>1932</ele>
        <time>2022-08-08T11:41:35Z</time>
      </trkpt>
      <trkpt lat="45.48685" lon="6.40883">
        <ele>1930</ele>
        <time>2022-08-08T11:41:44Z</time>
      </trkpt>
      <trkpt lat="45.48676" lon="6.4089">
        <ele>1928</ele>
        <time>2022-08-08T11:41:49Z</time>
      </trkpt>
      <trkpt lat="45.48669" lon="6.40901">
        <ele>1928</ele>
        <time>2022-08-08T11:41:53Z</time>
      </trkpt>
      <trkpt lat="45.4866" lon="6.40951">
        <ele>1925</ele>
        <time>2022-08-08T11:42:08Z</time>
      </trkpt>
      <trkpt lat="45.48663" lon="6.40978">
        <ele>1923</ele>
        <time>2022-08-08T11:42:16Z</time>
      </trkpt>
      <trkpt lat="45.4867" lon="6.41009">
        <ele>1921</ele>
        <time>2022-08-08T11:42:26Z</time>
      </trkpt>
      <trkpt lat="45.48691" lon="6.41043">
        <ele>1918</ele>
        <time>2022-08-08T11:42:40Z</time>
      </trkpt>
      <trkpt lat="45.48695" lon="6.41047">
        <ele>1918</ele>
        <time>2022-08-08T11:42:42Z</time>
      </trkpt>
      <trkpt lat="45.48702" lon="6.41055">
        <ele>1917</ele>
        <time>2022-08-08T11:42:46Z</time>
      </trkpt>
      <trkpt lat="45.48707" lon="6.41059">
        <ele>1916</ele>
        <time>2022-08-08T11:42:48Z</time>
      </trkpt>
      <trkpt lat="45.48711" lon="6.41062">
        <ele>1915</ele>
        <time>2022-08-08T11:42:50Z</time>
      </trkpt>
      <trkpt lat="45.48714" lon="6.41068">
        <ele>1915</ele>
        <time>2022-08-08T11:42:52Z</time>
      </trkpt>
      <trkpt lat="45.48717" lon="6.41076">
        <ele>1914</ele>
        <time>2022-08-08T11:42:55Z</time>
      </trkpt>
      <trkpt lat="45.48723" lon="6.41087">
        <ele>1913</ele>
        <time>2022-08-08T11:42:59Z</time>
      </trkpt>
      <trkpt lat="45.48734" lon="6.41101">
        <ele>1912</ele>
        <time>2022-08-08T11:43:06Z</time>
      </trkpt>
      <trkpt lat="45.48746" lon="6.41107">
        <ele>1911</ele>
        <time>2022-08-08T11:43:12Z</time>
      </trkpt>
      <trkpt lat="45.48752" lon="6.41106">
        <ele>1910</ele>
        <time>2022-08-08T11:43:15Z</time>
      </trkpt>
      <trkpt lat="45.48761" lon="6.41108">
        <ele>1909</ele>
        <time>2022-08-08T11:43:19Z</time>
      </trkpt>
      <trkpt lat="45.48791" lon="6.41128">
        <ele>1905</ele>
        <time>2022-08-08T11:43:34Z</time>
      </trkpt>
      <trkpt lat="45.48816" lon="6.4113">
        <ele>1902</ele>
        <time>2022-08-08T11:43:46Z</time>
      </trkpt>
      <trkpt lat="45.48819" lon="6.41135">
        <ele>1902</ele>
        <time>2022-08-08T11:43:48Z</time>
      </trkpt>
      <trkpt lat="45.48819" lon="6.41143">
        <ele>1901</ele>
        <time>2022-08-08T11:43:51Z</time>
      </trkpt>
      <trkpt lat="45.48815" lon="6.41149">
        <ele>1901</ele>
        <time>2022-08-08T11:43:54Z</time>
      </trkpt>
      <trkpt lat="45.4881" lon="6.4115">
        <ele>1900</ele>
        <time>2022-08-08T11:43:56Z</time>
      </trkpt>
      <trkpt lat="45.48805" lon="6.41149">
        <ele>1899</ele>
        <time>2022-08-08T11:43:59Z</time>
      </trkpt>
      <trkpt lat="45.48761" lon="6.41157">
        <ele>1895</ele>
        <time>2022-08-08T11:44:19Z</time>
      </trkpt>
      <trkpt lat="45.48728" lon="6.41163">
        <ele>1891</ele>
        <time>2022-08-08T11:44:34Z</time>
      </trkpt>
      <trkpt lat="45.48723" lon="6.41161">
        <ele>1891</ele>
        <time>2022-08-08T11:44:36Z</time>
      </trkpt>
      <trkpt lat="45.48712" lon="6.4116">
        <ele>1889</ele>
        <time>2022-08-08T11:44:41Z</time>
      </trkpt>
      <trkpt lat="45.48707" lon="6.41161">
        <ele>1889</ele>
        <time>2022-08-08T11:44:43Z</time>
      </trkpt>
      <trkpt lat="45.48699" lon="6.41156">
        <ele>1888</ele>
        <time>2022-08-08T11:44:47Z</time>
      </trkpt>
      <trkpt lat="45.4869" lon="6.41151">
        <ele>1887</ele>
        <time>2022-08-08T11:44:51Z</time>
      </trkpt>
      <trkpt lat="45.48669" lon="6.41134">
        <ele>1885</ele>
        <time>2022-08-08T11:45:01Z</time>
      </trkpt>
      <trkpt lat="45.48647" lon="6.41117">
        <ele>1881</ele>
        <time>2022-08-08T11:45:13Z</time>
      </trkpt>
      <trkpt lat="45.48631" lon="6.41098">
        <ele>1878</ele>
        <time>2022-08-08T11:45:23Z</time>
      </trkpt>
      <trkpt lat="45.48626" lon="6.41104">
        <ele>1877</ele>
        <time>2022-08-08T11:45:26Z</time>
      </trkpt>
      <trkpt lat="45.48627" lon="6.41111">
        <ele>1877</ele>
        <time>2022-08-08T11:45:29Z</time>
      </trkpt>
      <trkpt lat="45.48652" lon="6.4115">
        <ele>1871</ele>
        <time>2022-08-08T11:46:00Z</time>
      </trkpt>
      <trkpt lat="45.48659" lon="6.41158">
        <ele>1870</ele>
        <time>2022-08-08T11:46:07Z</time>
      </trkpt>
      <trkpt lat="45.4867" lon="6.41173">
        <ele>1868</ele>
        <time>2022-08-08T11:46:18Z</time>
      </trkpt>
      <trkpt lat="45.48682" lon="6.41188">
        <ele>1867</ele>
        <time>2022-08-08T11:46:26Z</time>
      </trkpt>
      <trkpt lat="45.48749" lon="6.41238">
        <ele>1860</ele>
        <time>2022-08-08T11:46:55Z</time>
      </trkpt>
      <trkpt lat="45.48753" lon="6.41238">
        <ele>1859</ele>
        <time>2022-08-08T11:46:57Z</time>
      </trkpt>
      <trkpt lat="45.48758" lon="6.41237">
        <ele>1859</ele>
        <time>2022-08-08T11:46:59Z</time>
      </trkpt>
      <trkpt lat="45.48763" lon="6.41238">
        <ele>1858</ele>
        <time>2022-08-08T11:47:02Z</time>
      </trkpt>
      <trkpt lat="45.48765" lon="6.41245">
        <ele>1857</ele>
        <time>2022-08-08T11:47:04Z</time>
      </trkpt>
      <trkpt lat="45.48758" lon="6.41251">
        <ele>1856</ele>
        <time>2022-08-08T11:47:07Z</time>
      </trkpt>
      <trkpt lat="45.48749" lon="6.41255">
        <ele>1856</ele>
        <time>2022-08-08T11:47:11Z</time>
      </trkpt>
      <trkpt lat="45.48743" lon="6.41253">
        <ele>1855</ele>
        <time>2022-08-08T11:47:13Z</time>
      </trkpt>
      <trkpt lat="45.48734" lon="6.41252">
        <ele>1855</ele>
        <time>2022-08-08T11:47:17Z</time>
      </trkpt>
      <trkpt lat="45.48712" lon="6.41237">
        <ele>1853</ele>
        <time>2022-08-08T11:47:27Z</time>
      </trkpt>
      <trkpt lat="45.48688" lon="6.41228">
        <ele>1852</ele>
        <time>2022-08-08T11:47:37Z</time>
      </trkpt>
      <trkpt lat="45.48678" lon="6.41221">
        <ele>1851</ele>
        <time>2022-08-08T11:47:42Z</time>
      </trkpt>
      <trkpt lat="45.48669" lon="6.41218">
        <ele>1851</ele>
        <time>2022-08-08T11:47:46Z</time>
      </trkpt>
      <trkpt lat="45.4865" lon="6.41209">
        <ele>1850</ele>
        <time>2022-08-08T11:47:54Z</time>
      </trkpt>
      <trkpt lat="45.48636" lon="6.41209">
        <ele>1850</ele>
        <time>2022-08-08T11:48:00Z</time>
      </trkpt>
      <trkpt lat="45.48627" lon="6.41218">
        <ele>1849</ele>
        <time>2022-08-08T11:48:04Z</time>
      </trkpt>
      <trkpt lat="45.48614" lon="6.41217">
        <ele>1848</ele>
        <time>2022-08-08T11:48:13Z</time>
      </trkpt>
      <trkpt lat="45.48609" lon="6.41211">
        <ele>1847</ele>
        <time>2022-08-08T11:48:18Z</time>
      </trkpt>
      <trkpt lat="45.4859" lon="6.41187">
        <ele>1846</ele>
        <time>2022-08-08T11:48:29Z</time>
      </trkpt>
      <trkpt lat="45.48551" lon="6.41138">
        <ele>1841</ele>
        <time>2022-08-08T11:48:52Z</time>
      </trkpt>
      <trkpt lat="45.48546" lon="6.41136">
        <ele>1841</ele>
        <time>2022-08-08T11:48:55Z</time>
      </trkpt>
      <trkpt lat="45.48542" lon="6.41131">
        <ele>1839</ele>
        <time>2022-08-08T11:48:58Z</time>
      </trkpt>
      <trkpt lat="45.48536" lon="6.41136">
        <ele>1838</ele>
        <time>2022-08-08T11:49:03Z</time>
      </trkpt>
      <trkpt lat="45.48539" lon="6.4114">
        <ele>1837</ele>
        <time>2022-08-08T11:49:05Z</time>
      </trkpt>
      <trkpt lat="45.4854" lon="6.41148">
        <ele>1837</ele>
        <time>2022-08-08T11:49:08Z</time>
      </trkpt>
      <trkpt lat="45.48551" lon="6.41187">
        <ele>1832</ele>
        <time>2022-08-08T11:49:23Z</time>
      </trkpt>
      <trkpt lat="45.48546" lon="6.41185">
        <ele>1830</ele>
        <time>2022-08-08T11:49:28Z</time>
      </trkpt>
      <trkpt lat="45.48543" lon="6.41182">
        <ele>1829</ele>
        <time>2022-08-08T11:49:30Z</time>
      </trkpt>
      <trkpt lat="45.48542" lon="6.41192">
        <ele>1828</ele>
        <time>2022-08-08T11:49:33Z</time>
      </trkpt>
      <trkpt lat="45.48545" lon="6.41197">
        <ele>1828</ele>
        <time>2022-08-08T11:49:35Z</time>
      </trkpt>
      <trkpt lat="45.48549" lon="6.41217">
        <ele>1825</ele>
        <time>2022-08-08T11:49:43Z</time>
      </trkpt>
      <trkpt lat="45.48551" lon="6.41222">
        <ele>1825</ele>
        <time>2022-08-08T11:49:45Z</time>
      </trkpt>
      <trkpt lat="45.48545" lon="6.41222">
        <ele>1824</ele>
        <time>2022-08-08T11:49:50Z</time>
      </trkpt>
      <trkpt lat="45.48539" lon="6.41228">
        <ele>1822</ele>
        <time>2022-08-08T11:49:55Z</time>
      </trkpt>
      <trkpt lat="45.48537" lon="6.41236">
        <ele>1820</ele>
        <time>2022-08-08T11:50:00Z</time>
      </trkpt>
      <trkpt lat="45.48533" lon="6.41239">
        <ele>1817</ele>
        <time>2022-08-08T11:50:10Z</time>
      </trkpt>
      <trkpt lat="45.48538" lon="6.4125">
        <ele>1817</ele>
        <time>2022-08-08T11:50:19Z</time>
      </trkpt>
      <trkpt lat="45.4854" lon="6.41254">
        <ele>1817</ele>
        <time>2022-08-08T11:50:21Z</time>
      </trkpt>
      <trkpt lat="45.48535" lon="6.41258">
        <ele>1814</ele>
        <time>2022-08-08T11:50:26Z</time>
      </trkpt>
      <trkpt lat="45.48531" lon="6.41257">
        <ele>1813</ele>
        <time>2022-08-08T11:50:28Z</time>
      </trkpt>
      <trkpt lat="45.48521" lon="6.41251">
        <ele>1811</ele>
        <time>2022-08-08T11:50:34Z</time>
      </trkpt>
      <trkpt lat="45.4849" lon="6.41214">
        <ele>1805</ele>
        <time>2022-08-08T11:50:53Z</time>
      </trkpt>
      <trkpt lat="45.48483" lon="6.41212">
        <ele>1804</ele>
        <time>2022-08-08T11:50:56Z</time>
      </trkpt>
      <trkpt lat="45.4848" lon="6.41208">
        <ele>1804</ele>
        <time>2022-08-08T11:50:58Z</time>
      </trkpt>
      <trkpt lat="45.48465" lon="6.41194">
        <ele>1803</ele>
        <time>2022-08-08T11:51:04Z</time>
      </trkpt>
      <trkpt lat="45.48458" lon="6.41188">
        <ele>1802</ele>
        <time>2022-08-08T11:51:08Z</time>
      </trkpt>
      <trkpt lat="45.48444" lon="6.41182">
        <ele>1800</ele>
        <time>2022-08-08T11:51:15Z</time>
      </trkpt>
      <trkpt lat="45.48398" lon="6.41165">
        <ele>1789</ele>
        <time>2022-08-08T11:51:41Z</time>
      </trkpt>
      <trkpt lat="45.48395" lon="6.41176">
        <ele>1787</ele>
        <time>2022-08-08T11:51:48Z</time>
      </trkpt>
      <trkpt lat="45.484" lon="6.41186">
        <ele>1785</ele>
        <time>2022-08-08T11:51:53Z</time>
      </trkpt>
      <trkpt lat="45.48401" lon="6.41193">
        <ele>1784</ele>
        <time>2022-08-08T11:51:57Z</time>
      </trkpt>
      <trkpt lat="45.48396" lon="6.41194">
        <ele>1783</ele>
        <time>2022-08-08T11:52:00Z</time>
      </trkpt>
      <trkpt lat="45.48391" lon="6.41192">
        <ele>1782</ele>
        <time>2022-08-08T11:52:03Z</time>
      </trkpt>
      <trkpt lat="45.48387" lon="6.41194">
        <ele>1780</ele>
        <time>2022-08-08T11:52:07Z</time>
      </trkpt>
      <trkpt lat="45.48387" lon="6.412">
        <ele>1779</ele>
        <time>2022-08-08T11:52:09Z</time>
      </trkpt>
      <trkpt lat="45.4839" lon="6.41205">
        <ele>1779</ele>
        <time>2022-08-08T11:52:11Z</time>
      </trkpt>
      <trkpt lat="45.48385" lon="6.41207">
        <ele>1777</ele>
        <time>2022-08-08T11:52:15Z</time>
      </trkpt>
      <trkpt lat="45.48376" lon="6.41202">
        <ele>1775</ele>
        <time>2022-08-08T11:52:20Z</time>
      </trkpt>
      <trkpt lat="45.48372" lon="6.41206">
        <ele>1774</ele>
        <time>2022-08-08T11:52:23Z</time>
      </trkpt>
      <trkpt lat="45.48371" lon="6.41214">
        <ele>1773</ele>
        <time>2022-08-08T11:52:28Z</time>
      </trkpt>
      <trkpt lat="45.48374" lon="6.41221">
        <ele>1772</ele>
        <time>2022-08-08T11:52:31Z</time>
      </trkpt>
      <trkpt lat="45.48374" lon="6.41227">
        <ele>1770</ele>
        <time>2022-08-08T11:52:34Z</time>
      </trkpt>
      <trkpt lat="45.48368" lon="6.41227">
        <ele>1768</ele>
        <time>2022-08-08T11:52:37Z</time>
      </trkpt>
      <trkpt lat="45.48356" lon="6.41218">
        <ele>1764</ele>
        <time>2022-08-08T11:52:45Z</time>
      </trkpt>
      <trkpt lat="45.48352" lon="6.41223">
        <ele>1763</ele>
        <time>2022-08-08T11:52:49Z</time>
      </trkpt>
      <trkpt lat="45.48346" lon="6.41223">
        <ele>1760</ele>
        <time>2022-08-08T11:52:54Z</time>
      </trkpt>
      <trkpt lat="45.48343" lon="6.4122">
        <ele>1758</ele>
        <time>2022-08-08T11:52:56Z</time>
      </trkpt>
      <trkpt lat="45.48339" lon="6.41209">
        <ele>1756</ele>
        <time>2022-08-08T11:53:00Z</time>
      </trkpt>
      <trkpt lat="45.48335" lon="6.41205">
        <ele>1756</ele>
        <time>2022-08-08T11:53:02Z</time>
      </trkpt>
      <trkpt lat="45.48329" lon="6.41204">
        <ele>1755</ele>
        <time>2022-08-08T11:53:04Z</time>
      </trkpt>
      <trkpt lat="45.48324" lon="6.41208">
        <ele>1754</ele>
        <time>2022-08-08T11:53:06Z</time>
      </trkpt>
      <trkpt lat="45.4832" lon="6.41204">
        <ele>1754</ele>
        <time>2022-08-08T11:53:08Z</time>
      </trkpt>
      <trkpt lat="45.48315" lon="6.41192">
        <ele>1753</ele>
        <time>2022-08-08T11:53:12Z</time>
      </trkpt>
      <trkpt lat="45.48271" lon="6.41133">
        <ele>1749</ele>
        <time>2022-08-08T11:53:36Z</time>
      </trkpt>
      <trkpt lat="45.48263" lon="6.41125">
        <ele>1747</ele>
        <time>2022-08-08T11:53:43Z</time>
      </trkpt>
      <trkpt lat="45.48259" lon="6.41115">
        <ele>1747</ele>
        <time>2022-08-08T11:53:48Z</time>
      </trkpt>
      <trkpt lat="45.48244" lon="6.41075">
        <ele>1745</ele>
        <time>2022-08-08T11:54:01Z</time>
      </trkpt>
      <trkpt lat="45.48246" lon="6.41069">
        <ele>1744</ele>
        <time>2022-08-08T11:54:03Z</time>
      </trkpt>
      <trkpt lat="45.48241" lon="6.41047">
        <ele>1743</ele>
        <time>2022-08-08T11:54:09Z</time>
      </trkpt>
      <trkpt lat="45.48239" lon="6.41031">
        <ele>1742</ele>
        <time>2022-08-08T11:54:13Z</time>
      </trkpt>
      <trkpt lat="45.48236" lon="6.41025">
        <ele>1742</ele>
        <time>2022-08-08T11:54:15Z</time>
      </trkpt>
      <trkpt lat="45.48233" lon="6.41003">
        <ele>1742</ele>
        <time>2022-08-08T11:54:21Z</time>
      </trkpt>
      <trkpt lat="45.48233" lon="6.40994">
        <ele>1741</ele>
        <time>2022-08-08T11:54:24Z</time>
      </trkpt>
      <trkpt lat="45.48231" lon="6.4098">
        <ele>1740</ele>
        <time>2022-08-08T11:54:28Z</time>
      </trkpt>
      <trkpt lat="45.48229" lon="6.40953">
        <ele>1738</ele>
        <time>2022-08-08T11:54:36Z</time>
      </trkpt>
      <trkpt lat="45.48238" lon="6.40927">
        <ele>1737</ele>
        <time>2022-08-08T11:54:44Z</time>
      </trkpt>
      <trkpt lat="45.48285" lon="6.40855">
        <ele>1729</ele>
        <time>2022-08-08T11:55:14Z</time>
      </trkpt>
      <trkpt lat="45.48296" lon="6.40835">
        <ele>1727</ele>
        <time>2022-08-08T11:55:22Z</time>
      </trkpt>
      <trkpt lat="45.4835" lon="6.40767">
        <ele>1720</ele>
        <time>2022-08-08T11:55:53Z</time>
      </trkpt>
      <trkpt lat="45.4836" lon="6.40753">
        <ele>1719</ele>
        <time>2022-08-08T11:55:59Z</time>
      </trkpt>
      <trkpt lat="45.48364" lon="6.4074">
        <ele>1718</ele>
        <time>2022-08-08T11:56:03Z</time>
      </trkpt>
      <trkpt lat="45.48364" lon="6.40726">
        <ele>1717</ele>
        <time>2022-08-08T11:56:07Z</time>
      </trkpt>
      <trkpt lat="45.48368" lon="6.40719">
        <ele>1716</ele>
        <time>2022-08-08T11:56:10Z</time>
      </trkpt>
      <trkpt lat="45.48372" lon="6.40717">
        <ele>1716</ele>
        <time>2022-08-08T11:56:12Z</time>
      </trkpt>
      <trkpt lat="45.48381" lon="6.40698">
        <ele>1716</ele>
        <time>2022-08-08T11:56:19Z</time>
      </trkpt>
      <trkpt lat="45.48434" lon="6.40622">
        <ele>1711</ele>
        <time>2022-08-08T11:56:49Z</time>
      </trkpt>
      <trkpt lat="45.48462" lon="6.40574">
        <ele>1711</ele>
        <time>2022-08-08T11:57:07Z</time>
      </trkpt>
      <trkpt lat="45.48464" lon="6.40567">
        <ele>1712</ele>
        <time>2022-08-08T11:57:13Z</time>
      </trkpt>
      <trkpt lat="45.48462" lon="6.40556">
        <ele>1708</ele>
        <time>2022-08-08T11:57:24Z</time>
      </trkpt>
      <trkpt lat="45.48452" lon="6.40548">
        <ele>1703</ele>
        <time>2022-08-08T11:57:31Z</time>
      </trkpt>
      <trkpt lat="45.48439" lon="6.40558">
        <ele>1698</ele>
        <time>2022-08-08T11:57:41Z</time>
      </trkpt>
      <trkpt lat="45.48427" lon="6.40567">
        <ele>1694</ele>
        <time>2022-08-08T11:57:50Z</time>
      </trkpt>
      <trkpt lat="45.48422" lon="6.40568">
        <ele>1692</ele>
        <time>2022-08-08T11:57:53Z</time>
      </trkpt>
      <trkpt lat="45.484" lon="6.40583">
        <ele>1684</ele>
        <time>2022-08-08T11:58:09Z</time>
      </trkpt>
      <trkpt lat="45.48397" lon="6.40587">
        <ele>1682</ele>
        <time>2022-08-08T11:58:12Z</time>
      </trkpt>
      <trkpt lat="45.48392" lon="6.40587">
        <ele>1680</ele>
        <time>2022-08-08T11:58:15Z</time>
      </trkpt>
      <trkpt lat="45.48388" lon="6.40591">
        <ele>1679</ele>
        <time>2022-08-08T11:58:18Z</time>
      </trkpt>
      <trkpt lat="45.48362" lon="6.406">
        <ele>1671</ele>
        <time>2022-08-08T11:58:34Z</time>
      </trkpt>
      <trkpt lat="45.48358" lon="6.40604">
        <ele>1670</ele>
        <time>2022-08-08T11:58:37Z</time>
      </trkpt>
      <trkpt lat="45.48348" lon="6.40605">
        <ele>1668</ele>
        <time>2022-08-08T11:58:43Z</time>
      </trkpt>
      <trkpt lat="45.48344" lon="6.40608">
        <ele>1666</ele>
        <time>2022-08-08T11:58:46Z</time>
      </trkpt>
      <trkpt lat="45.4833" lon="6.40613">
        <ele>1662</ele>
        <time>2022-08-08T11:58:56Z</time>
      </trkpt>
      <trkpt lat="45.48322" lon="6.40619">
        <ele>1659</ele>
        <time>2022-08-08T11:59:02Z</time>
      </trkpt>
      <trkpt lat="45.48303" lon="6.40627">
        <ele>1655</ele>
        <time>2022-08-08T11:59:14Z</time>
      </trkpt>
      <trkpt lat="45.48299" lon="6.40631">
        <ele>1653</ele>
        <time>2022-08-08T11:59:17Z</time>
      </trkpt>
      <trkpt lat="45.48294" lon="6.40631">
        <ele>1652</ele>
        <time>2022-08-08T11:59:20Z</time>
      </trkpt>
      <trkpt lat="45.48292" lon="6.40637">
        <ele>1651</ele>
        <time>2022-08-08T11:59:23Z</time>
      </trkpt>
      <trkpt lat="45.48279" lon="6.40645">
        <ele>1648</ele>
        <time>2022-08-08T11:59:32Z</time>
      </trkpt>
      <trkpt lat="45.48274" lon="6.40646">
        <ele>1647</ele>
        <time>2022-08-08T11:59:35Z</time>
      </trkpt>
      <trkpt lat="45.48269" lon="6.40649">
        <ele>1645</ele>
        <time>2022-08-08T11:59:39Z</time>
      </trkpt>
      <trkpt lat="45.48255" lon="6.40657">
        <ele>1639</ele>
        <time>2022-08-08T11:59:49Z</time>
      </trkpt>
      <trkpt lat="45.48251" lon="6.40661">
        <ele>1638</ele>
        <time>2022-08-08T11:59:52Z</time>
      </trkpt>
      <trkpt lat="45.48247" lon="6.40662">
        <ele>1636</ele>
        <time>2022-08-08T11:59:56Z</time>
      </trkpt>
      <trkpt lat="45.48243" lon="6.40666">
        <ele>1635</ele>
        <time>2022-08-08T11:59:59Z</time>
      </trkpt>
      <trkpt lat="45.48239" lon="6.40671">
        <ele>1633</ele>
        <time>2022-08-08T12:00:03Z</time>
      </trkpt>
      <trkpt lat="45.48234" lon="6.40672">
        <ele>1632</ele>
        <time>2022-08-08T12:00:07Z</time>
      </trkpt>
      <trkpt lat="45.48228" lon="6.4067">
        <ele>1630</ele>
        <time>2022-08-08T12:00:11Z</time>
      </trkpt>
      <trkpt lat="45.48195" lon="6.40674">
        <ele>1622</ele>
        <time>2022-08-08T12:00:34Z</time>
      </trkpt>
      <trkpt lat="45.4819" lon="6.40671">
        <ele>1620</ele>
        <time>2022-08-08T12:00:37Z</time>
      </trkpt>
      <trkpt lat="45.48168" lon="6.40674">
        <ele>1616</ele>
        <time>2022-08-08T12:00:51Z</time>
      </trkpt>
      <trkpt lat="45.48164" lon="6.40672">
        <ele>1614</ele>
        <time>2022-08-08T12:00:54Z</time>
      </trkpt>
      <trkpt lat="45.48155" lon="6.40671">
        <ele>1612</ele>
        <time>2022-08-08T12:01:00Z</time>
      </trkpt>
      <trkpt lat="45.4815" lon="6.4067">
        <ele>1611</ele>
        <time>2022-08-08T12:01:03Z</time>
      </trkpt>
      <trkpt lat="45.48136" lon="6.4067">
        <ele>1608</ele>
        <time>2022-08-08T12:01:11Z</time>
      </trkpt>
      <trkpt lat="45.48126" lon="6.40672">
        <ele>1606</ele>
        <time>2022-08-08T12:01:17Z</time>
      </trkpt>
      <trkpt lat="45.4812" lon="6.40671">
        <ele>1605</ele>
        <time>2022-08-08T12:01:20Z</time>
      </trkpt>
      <trkpt lat="45.48113" lon="6.40673">
        <ele>1603</ele>
        <time>2022-08-08T12:01:24Z</time>
      </trkpt>
      <trkpt lat="45.481" lon="6.40669">
        <ele>1600</ele>
        <time>2022-08-08T12:01:31Z</time>
      </trkpt>
      <trkpt lat="45.48095" lon="6.4067">
        <ele>1599</ele>
        <time>2022-08-08T12:01:33Z</time>
      </trkpt>
      <trkpt lat="45.4809" lon="6.40667">
        <ele>1597</ele>
        <time>2022-08-08T12:01:36Z</time>
      </trkpt>
      <trkpt lat="45.48081" lon="6.40674">
        <ele>1596</ele>
        <time>2022-08-08T12:01:41Z</time>
      </trkpt>
      <trkpt lat="45.48073" lon="6.40673">
        <ele>1594</ele>
        <time>2022-08-08T12:01:45Z</time>
      </trkpt>
      <trkpt lat="45.48047" lon="6.40689">
        <ele>1589</ele>
        <time>2022-08-08T12:02:00Z</time>
      </trkpt>
      <trkpt lat="45.48037" lon="6.40697">
        <ele>1586</ele>
        <time>2022-08-08T12:02:06Z</time>
      </trkpt>
      <trkpt lat="45.48033" lon="6.40697">
        <ele>1585</ele>
        <time>2022-08-08T12:02:09Z</time>
      </trkpt>
      <trkpt lat="45.48029" lon="6.40699">
        <ele>1584</ele>
        <time>2022-08-08T12:02:12Z</time>
      </trkpt>
      <trkpt lat="45.48025" lon="6.40704">
        <ele>1583</ele>
        <time>2022-08-08T12:02:15Z</time>
      </trkpt>
      <trkpt lat="45.48015" lon="6.40705">
        <ele>1580</ele>
        <time>2022-08-08T12:02:21Z</time>
      </trkpt>
      <trkpt lat="45.48011" lon="6.40708">
        <ele>1579</ele>
        <time>2022-08-08T12:02:24Z</time>
      </trkpt>
      <trkpt lat="45.48003" lon="6.40724">
        <ele>1574</ele>
        <time>2022-08-08T12:02:34Z</time>
      </trkpt>
      <trkpt lat="45.47994" lon="6.4073">
        <ele>1572</ele>
        <time>2022-08-08T12:02:42Z</time>
      </trkpt>
      <trkpt lat="45.47989" lon="6.40732">
        <ele>1570</ele>
        <time>2022-08-08T12:02:46Z</time>
      </trkpt>
      <trkpt lat="45.47984" lon="6.40737">
        <ele>1568</ele>
        <time>2022-08-08T12:02:50Z</time>
      </trkpt>
      <trkpt lat="45.47981" lon="6.40741">
        <ele>1567</ele>
        <time>2022-08-08T12:02:53Z</time>
      </trkpt>
      <trkpt lat="45.47976" lon="6.40745">
        <ele>1566</ele>
        <time>2022-08-08T12:02:57Z</time>
      </trkpt>
      <trkpt lat="45.47974" lon="6.40751">
        <ele>1565</ele>
        <time>2022-08-08T12:03:00Z</time>
      </trkpt>
      <trkpt lat="45.47968" lon="6.40762">
        <ele>1562</ele>
        <time>2022-08-08T12:03:06Z</time>
      </trkpt>
      <trkpt lat="45.47963" lon="6.40766">
        <ele>1561</ele>
        <time>2022-08-08T12:03:10Z</time>
      </trkpt>
      <trkpt lat="45.47943" lon="6.40798">
        <ele>1553</ele>
        <time>2022-08-08T12:03:29Z</time>
      </trkpt>
      <trkpt lat="45.47935" lon="6.40797">
        <ele>1550</ele>
        <time>2022-08-08T12:03:37Z</time>
      </trkpt>
      <trkpt lat="45.47923" lon="6.40812">
        <ele>1546</ele>
        <time>2022-08-08T12:03:47Z</time>
      </trkpt>
      <trkpt lat="45.47918" lon="6.40825">
        <ele>1544</ele>
        <time>2022-08-08T12:03:53Z</time>
      </trkpt>
      <trkpt lat="45.47914" lon="6.4083">
        <ele>1543</ele>
        <time>2022-08-08T12:03:56Z</time>
      </trkpt>
      <trkpt lat="45.47911" lon="6.40836">
        <ele>1542</ele>
        <time>2022-08-08T12:03:59Z</time>
      </trkpt>
      <trkpt lat="45.47905" lon="6.40843">
        <ele>1540</ele>
        <time>2022-08-08T12:04:04Z</time>
      </trkpt>
      <trkpt lat="45.47901" lon="6.40846">
        <ele>1539</ele>
        <time>2022-08-08T12:04:07Z</time>
      </trkpt>
      <trkpt lat="45.47893" lon="6.40859">
        <ele>1537</ele>
        <time>2022-08-08T12:04:12Z</time>
      </trkpt>
      <trkpt lat="45.47886" lon="6.40865">
        <ele>1535</ele>
        <time>2022-08-08T12:04:18Z</time>
      </trkpt>
      <trkpt lat="45.47879" lon="6.40874">
        <ele>1531</ele>
        <time>2022-08-08T12:04:25Z</time>
      </trkpt>
      <trkpt lat="45.47873" lon="6.40886">
        <ele>1529</ele>
        <time>2022-08-08T12:04:31Z</time>
      </trkpt>
      <trkpt lat="45.4787" lon="6.40891">
        <ele>1528</ele>
        <time>2022-08-08T12:04:33Z</time>
      </trkpt>
      <trkpt lat="45.47858" lon="6.40899">
        <ele>1525</ele>
        <time>2022-08-08T12:04:41Z</time>
      </trkpt>
      <trkpt lat="45.47855" lon="6.40907">
        <ele>1523</ele>
        <time>2022-08-08T12:04:45Z</time>
      </trkpt>
      <trkpt lat="45.47842" lon="6.40925">
        <ele>1518</ele>
        <time>2022-08-08T12:04:58Z</time>
      </trkpt>
      <trkpt lat="45.47837" lon="6.40938">
        <ele>1516</ele>
        <time>2022-08-08T12:05:04Z</time>
      </trkpt>
      <trkpt lat="45.47832" lon="6.40944">
        <ele>1515</ele>
        <time>2022-08-08T12:05:07Z</time>
      </trkpt>
      <trkpt lat="45.47826" lon="6.40961">
        <ele>1511</ele>
        <time>2022-08-08T12:05:17Z</time>
      </trkpt>
      <trkpt lat="45.47822" lon="6.40953">
        <ele>1509</ele>
        <time>2022-08-08T12:05:24Z</time>
      </trkpt>
      <trkpt lat="45.47822" lon="6.40945">
        <ele>1508</ele>
        <time>2022-08-08T12:05:27Z</time>
      </trkpt>
      <trkpt lat="45.47831" lon="6.40863">
        <ele>1502</ele>
        <time>2022-08-08T12:05:53Z</time>
      </trkpt>
      <trkpt lat="45.4783" lon="6.40856">
        <ele>1501</ele>
        <time>2022-08-08T12:05:55Z</time>
      </trkpt>
      <trkpt lat="45.47827" lon="6.40851">
        <ele>1501</ele>
        <time>2022-08-08T12:05:57Z</time>
      </trkpt>
      <trkpt lat="45.47822" lon="6.40848">
        <ele>1500</ele>
        <time>2022-08-08T12:05:59Z</time>
      </trkpt>
      <trkpt lat="45.47807" lon="6.40843">
        <ele>1499</ele>
        <time>2022-08-08T12:06:06Z</time>
      </trkpt>
      <trkpt lat="45.47799" lon="6.40845">
        <ele>1498</ele>
        <time>2022-08-08T12:06:12Z</time>
      </trkpt>
      <trkpt lat="45.47777" lon="6.40839">
        <ele>1497</ele>
        <time>2022-08-08T12:06:21Z</time>
      </trkpt>
      <trkpt lat="45.47772" lon="6.4084">
        <ele>1497</ele>
        <time>2022-08-08T12:06:23Z</time>
      </trkpt>
      <trkpt lat="45.47757" lon="6.40849">
        <ele>1496</ele>
        <time>2022-08-08T12:06:29Z</time>
      </trkpt>
      <trkpt lat="45.47703" lon="6.40916">
        <ele>1488</ele>
        <time>2022-08-08T12:06:59Z</time>
      </trkpt>
      <trkpt lat="45.47689" lon="6.4093">
        <ele>1486</ele>
        <time>2022-08-08T12:07:07Z</time>
      </trkpt>
      <trkpt lat="45.47689" lon="6.40939">
        <ele>1484</ele>
        <time>2022-08-08T12:07:12Z</time>
      </trkpt>
      <trkpt lat="45.47686" lon="6.40945">
        <ele>1482</ele>
        <time>2022-08-08T12:07:16Z</time>
      </trkpt>
      <trkpt lat="45.47683" lon="6.40954">
        <ele>1479</ele>
        <time>2022-08-08T12:07:21Z</time>
      </trkpt>
      <trkpt lat="45.47683" lon="6.4096">
        <ele>1478</ele>
        <time>2022-08-08T12:07:24Z</time>
      </trkpt>
      <trkpt lat="45.47677" lon="6.40979">
        <ele>1472</ele>
        <time>2022-08-08T12:07:36Z</time>
      </trkpt>
      <trkpt lat="45.47676" lon="6.40996">
        <ele>1466</ele>
        <time>2022-08-08T12:07:47Z</time>
      </trkpt>
      <trkpt lat="45.47675" lon="6.41003">
        <ele>1465</ele>
        <time>2022-08-08T12:07:51Z</time>
      </trkpt>
      <trkpt lat="45.47676" lon="6.41009">
        <ele>1463</ele>
        <time>2022-08-08T12:07:55Z</time>
      </trkpt>
      <trkpt lat="45.47671" lon="6.41029">
        <ele>1457</ele>
        <time>2022-08-08T12:08:07Z</time>
      </trkpt>
      <trkpt lat="45.4767" lon="6.41036">
        <ele>1455</ele>
        <time>2022-08-08T12:08:11Z</time>
      </trkpt>
      <trkpt lat="45.47667" lon="6.41043">
        <ele>1453</ele>
        <time>2022-08-08T12:08:15Z</time>
      </trkpt>
      <trkpt lat="45.47667" lon="6.41049">
        <ele>1452</ele>
        <time>2022-08-08T12:08:18Z</time>
      </trkpt>
      <trkpt lat="45.47664" lon="6.41055">
        <ele>1451</ele>
        <time>2022-08-08T12:08:21Z</time>
      </trkpt>
      <trkpt lat="45.47667" lon="6.41067">
        <ele>1448</ele>
        <time>2022-08-08T12:08:28Z</time>
      </trkpt>
      <trkpt lat="45.47667" lon="6.41074">
        <ele>1446</ele>
        <time>2022-08-08T12:08:32Z</time>
      </trkpt>
      <trkpt lat="45.47652" lon="6.41112">
        <ele>1437</ele>
        <time>2022-08-08T12:08:55Z</time>
      </trkpt>
      <trkpt lat="45.47655" lon="6.41125">
        <ele>1434</ele>
        <time>2022-08-08T12:09:02Z</time>
      </trkpt>
      <trkpt lat="45.47653" lon="6.41132">
        <ele>1432</ele>
        <time>2022-08-08T12:09:06Z</time>
      </trkpt>
      <trkpt lat="45.47649" lon="6.41153">
        <ele>1428</ele>
        <time>2022-08-08T12:09:17Z</time>
      </trkpt>
      <trkpt lat="45.47636" lon="6.41178">
        <ele>1424</ele>
        <time>2022-08-08T12:09:27Z</time>
      </trkpt>
      <trkpt lat="45.47628" lon="6.41188">
        <ele>1423</ele>
        <time>2022-08-08T12:09:32Z</time>
      </trkpt>
      <trkpt lat="45.47604" lon="6.41222">
        <ele>1419</ele>
        <time>2022-08-08T12:09:48Z</time>
      </trkpt>
      <trkpt lat="45.47583" lon="6.41271">
        <ele>1414</ele>
        <time>2022-08-08T12:10:07Z</time>
      </trkpt>
      <trkpt lat="45.47574" lon="6.41302">
        <ele>1411</ele>
        <time>2022-08-08T12:10:19Z</time>
      </trkpt>
      <trkpt lat="45.47571" lon="6.41308">
        <ele>1410</ele>
        <time>2022-08-08T12:10:22Z</time>
      </trkpt>
      <trkpt lat="45.47571" lon="6.41317">
        <ele>1409</ele>
        <time>2022-08-08T12:10:28Z</time>
      </trkpt>
      <trkpt lat="45.47587" lon="6.41333">
        <ele>1401</ele>
        <time>2022-08-08T12:10:44Z</time>
      </trkpt>
      <trkpt lat="45.47588" lon="6.41341">
        <ele>1398</ele>
        <time>2022-08-08T12:10:49Z</time>
      </trkpt>
      <trkpt lat="45.47583" lon="6.41346">
        <ele>1397</ele>
        <time>2022-08-08T12:10:52Z</time>
      </trkpt>
      <trkpt lat="45.47577" lon="6.4136">
        <ele>1397</ele>
        <time>2022-08-08T12:10:57Z</time>
      </trkpt>
      <trkpt lat="45.47574" lon="6.41364">
        <ele>1397</ele>
        <time>2022-08-08T12:10:59Z</time>
      </trkpt>
      <trkpt lat="45.4757" lon="6.41367">
        <ele>1396</ele>
        <time>2022-08-08T12:11:01Z</time>
      </trkpt>
      <trkpt lat="45.4756" lon="6.41379">
        <ele>1395</ele>
        <time>2022-08-08T12:11:07Z</time>
      </trkpt>
      <trkpt lat="45.47545" lon="6.41398">
        <ele>1394</ele>
        <time>2022-08-08T12:11:16Z</time>
      </trkpt>
      <trkpt lat="45.47537" lon="6.41414">
        <ele>1393</ele>
        <time>2022-08-08T12:11:22Z</time>
      </trkpt>
      <trkpt lat="45.47532" lon="6.41448">
        <ele>1391</ele>
        <time>2022-08-08T12:11:32Z</time>
      </trkpt>
      <trkpt lat="45.47518" lon="6.41539">
        <ele>1386</ele>
        <time>2022-08-08T12:12:03Z</time>
      </trkpt>
      <trkpt lat="45.47515" lon="6.41555">
        <ele>1386</ele>
        <time>2022-08-08T12:12:09Z</time>
      </trkpt>
      <trkpt lat="45.47501" lon="6.41605">
        <ele>1383</ele>
        <time>2022-08-08T12:12:26Z</time>
      </trkpt>
      <trkpt lat="45.47497" lon="6.41612">
        <ele>1382</ele>
        <time>2022-08-08T12:12:29Z</time>
      </trkpt>
      <trkpt lat="45.47486" lon="6.41624">
        <ele>1381</ele>
        <time>2022-08-08T12:12:35Z</time>
      </trkpt>
      <trkpt lat="45.47478" lon="6.4163">
        <ele>1380</ele>
        <time>2022-08-08T12:12:39Z</time>
      </trkpt>
      <trkpt lat="45.47469" lon="6.41629">
        <ele>1380</ele>
        <time>2022-08-08T12:12:43Z</time>
      </trkpt>
      <trkpt lat="45.47456" lon="6.41624">
        <ele>1379</ele>
        <time>2022-08-08T12:12:49Z</time>
      </trkpt>
      <trkpt lat="45.47436" lon="6.41611">
        <ele>1377</ele>
        <time>2022-08-08T12:12:59Z</time>
      </trkpt>
      <trkpt lat="45.47434" lon="6.41606">
        <ele>1377</ele>
        <time>2022-08-08T12:13:01Z</time>
      </trkpt>
      <trkpt lat="45.47408" lon="6.41576">
        <ele>1374</ele>
        <time>2022-08-08T12:13:16Z</time>
      </trkpt>
      <trkpt lat="45.47404" lon="6.41571">
        <ele>1374</ele>
        <time>2022-08-08T12:13:18Z</time>
      </trkpt>
      <trkpt lat="45.47399" lon="6.41567">
        <ele>1373</ele>
        <time>2022-08-08T12:13:21Z</time>
      </trkpt>
      <trkpt lat="45.47363" lon="6.41516">
        <ele>1370</ele>
        <time>2022-08-08T12:13:43Z</time>
      </trkpt>
      <trkpt lat="45.47355" lon="6.41489">
        <ele>1369</ele>
        <time>2022-08-08T12:13:52Z</time>
      </trkpt>
      <trkpt lat="45.47353" lon="6.41484">
        <ele>1368</ele>
        <time>2022-08-08T12:13:55Z</time>
      </trkpt>
      <trkpt lat="45.47347" lon="6.41479">
        <ele>1368</ele>
        <time>2022-08-08T12:13:59Z</time>
      </trkpt>
      <trkpt lat="45.47343" lon="6.41476">
        <ele>1367</ele>
        <time>2022-08-08T12:14:03Z</time>
      </trkpt>
    </trkseg>
  </trk>
  <rte>
    <name><![CDATA[4 avr. 2019 à 23:11:12]]></name>
    <cmt><![CDATA[4 avr. 2019 à 23:11:12]]></cmt>
    <desc><![CDATA[{DC1}Heure de fin	: 
Durée totale	: 0h00:00
Moyenne globale	: -
Pente moyenne	: 0.00 %
Aire incluse	: 7.4932 ha
Détails par segments
distance  | durée    | vit.moy. | vit.max. | déniv. + | déniv -
   km     | hh:mn:ss |   km/h   |   km/h   |    m     |    m
     0.81 | 00:00:00 |      0.0 |      0.0 |        0 |        0{DC2}]]></desc>
      <rtept lat="45.60077" lon="6.18221">
        <ele>1608.6</ele>
      </rtept>
      <rtept lat="45.59468" lon="6.1822">
        <ele>1760.9</ele>
      </rtept>
      <rtept lat="45.59468" lon="6.1822">
        <ele>1760.9</ele>
      </rtept>
    </rte>
  <rte>
    <name><![CDATA[10 févr. 2019 à 15:16:12]]></name>
    <cmt><![CDATA[10 févr. 2019 à 15:16:12]]></cmt>
    <desc><![CDATA[{DC1}Heure de fin	: 00:09:21
Durée totale	: -17690439h43:48
Moyenne globale	: -
Pente moyenne	: 7.00 %
Aire incluse	: 221.0936 ha
Détails par segments
distance  | durée    | vit.moy. | vit.max. | déniv. + | déniv -
   km     | hh:mn:ss |   km/h   |   km/h   |    m     |    m
     7.48 | 00:00:00 |      0.0 |      0.0 |        0 |        0{DC2}]]></desc>
      <rtept lat="45.55203" lon="5.93805">
        <ele>376</ele>
      </rtept>
      <rtept lat="45.55177" lon="5.93873">
        <ele>369</ele>
      </rtept>
      <rtept lat="45.55176" lon="5.93942">
        <ele>367</ele>
      </rtept>
      <rtept lat="45.55105" lon="5.93942">
        <ele>367</ele>
      </rtept>
      <rtept lat="45.54993" lon="5.93908">
        <ele>371</ele>
      </rtept>
      <rtept lat="45.54929" lon="5.94099">
        <ele>370</ele>
      </rtept>
      <rtept lat="45.54908" lon="5.94204">
        <ele>367</ele>
      </rtept>
      <rtept lat="45.54991" lon="5.94287">
        <ele>365</ele>
      </rtept>
      <rtept lat="45.5506" lon="5.94384">
        <ele>361</ele>
      </rtept>
      <rtept lat="45.55147" lon="5.94384">
        <ele>357</ele>
      </rtept>
      <rtept lat="45.55129" lon="5.94607">
        <ele>358</ele>
      </rtept>
      <rtept lat="45.55029" lon="5.94809">
        <ele>355</ele>
      </rtept>
      <rtept lat="45.54884" lon="5.94886">
        <ele>346</ele>
      </rtept>
      <rtept lat="45.5477" lon="5.94931">
        <ele>342</ele>
      </rtept>
      <rtept lat="45.5468" lon="5.95004">
        <ele>339</ele>
      </rtept>
      <rtept lat="45.54596" lon="5.95133">
        <ele>340</ele>
      </rtept>
      <rtept lat="45.54446" lon="5.95195">
        <ele>343</ele>
      </rtept>
      <rtept lat="45.543" lon="5.95262">
        <ele>344</ele>
      </rtept>
      <rtept lat="45.54156" lon="5.95212">
        <ele>337</ele>
      </rtept>
      <rtept lat="45.54041" lon="5.95204">
        <ele>338</ele>
      </rtept>
      <rtept lat="45.53917" lon="5.95141">
        <ele>343</ele>
      </rtept>
      <rtept lat="45.53844" lon="5.95135">
        <ele>347</ele>
      </rtept>
      <rtept lat="45.53765" lon="5.9503">
        <ele>349</ele>
      </rtept>
      <rtept lat="45.5381" lon="5.94993">
        <ele>352</ele>
      </rtept>
      <rtept lat="45.53781" lon="5.94901">
        <ele>358</ele>
      </rtept>
      <rtept lat="45.53711" lon="5.94845">
        <ele>365</ele>
      </rtept>
      <rtept lat="45.53702" lon="5.94764">
        <ele>369</ele>
      </rtept>
      <rtept lat="45.53817" lon="5.94807">
        <ele>376</ele>
      </rtept>
      <rtept lat="45.53865" lon="5.94633">
        <ele>389</ele>
      </rtept>
      <rtept lat="45.53778" lon="5.94491">
        <ele>408</ele>
      </rtept>
      <rtept lat="45.53757" lon="5.94371">
        <ele>425</ele>
      </rtept>
      <rtept lat="45.53775" lon="5.94279">
        <ele>434</ele>
      </rtept>
      <rtept lat="45.53726" lon="5.94227">
        <ele>442</ele>
      </rtept>
      <rtept lat="45.53572" lon="5.94146">
        <ele>468</ele>
      </rtept>
      <rtept lat="45.53664" lon="5.94039">
        <ele>483</ele>
      </rtept>
      <rtept lat="45.53532" lon="5.93983">
        <ele>505</ele>
      </rtept>
      <rtept lat="45.53416" lon="5.93985">
        <ele>516</ele>
      </rtept>
      <rtept lat="45.5355" lon="5.93869">
        <ele>532</ele>
      </rtept>
      <rtept lat="45.5359" lon="5.93845">
        <ele>537</ele>
      </rtept>
      <rtept lat="45.5355" lon="5.93802">
        <ele>544</ele>
      </rtept>
      <rtept lat="45.53724" lon="5.93554">
        <ele>587</ele>
      </rtept>
      <rtept lat="45.53691" lon="5.93339">
        <ele>592</ele>
      </rtept>
      <rtept lat="45.5376" lon="5.93178">
        <ele>575</ele>
      </rtept>
      <rtept lat="45.53843" lon="5.93069">
        <ele>555</ele>
      </rtept>
      <rtept lat="45.53939" lon="5.93157">
        <ele>541</ele>
      </rtept>
      <rtept lat="45.54068" lon="5.93234">
        <ele>522</ele>
      </rtept>
      <rtept lat="45.54219" lon="5.93247">
        <ele>514</ele>
      </rtept>
      <rtept lat="45.54355" lon="5.93232">
        <ele>512</ele>
      </rtept>
      <rtept lat="45.54489" lon="5.9326">
        <ele>508</ele>
      </rtept>
      <rtept lat="45.54636" lon="5.93249">
        <ele>510</ele>
      </rtept>
      <rtept lat="45.54758" lon="5.93249">
        <ele>510</ele>
      </rtept>
      <rtept lat="45.54818" lon="5.93298">
        <ele>507</ele>
      </rtept>
      <rtept lat="45.54796" lon="5.93418">
        <ele>496</ele>
      </rtept>
      <rtept lat="45.5491" lon="5.93433">
        <ele>483</ele>
      </rtept>
      <rtept lat="45.55126" lon="5.9341">
        <ele>463</ele>
      </rtept>
      <rtept lat="45.55256" lon="5.93453">
        <ele>444</ele>
      </rtept>
      <rtept lat="45.55329" lon="5.93558">
        <ele>430</ele>
      </rtept>
      <rtept lat="45.55222" lon="5.93642">
        <ele>415</ele>
      </rtept>
      <rtept lat="45.55195" lon="5.93811">
        <ele>375</ele>
      </rtept>
    </rte>
  <rte>
    <name><![CDATA[10 févr. 2019 à 15:15:48]]></name>
    <cmt><![CDATA[10 févr. 2019 à 15:15:48]]></cmt>
    <desc><![CDATA[{DC1}Heure de fin	: 00:09:21
Durée totale	: -17690439h44:12
Moyenne globale	: -
Pente moyenne	: nan %
Aire incluse	: 0.0000 ha
Détails par segments
distance  | durée    | vit.moy. | vit.max. | déniv. + | déniv -
   km     | hh:mn:ss |   km/h   |   km/h   |    m     |    m
     0.00 | 00:00:00 |      0.0 |      0.0 |        0 |        0{DC2}]]></desc>
      <rtept lat="45.5175" lon="5.93483">
        <ele>732.3</ele>
      </rtept>
    </rte>
  <rte>
    <name><![CDATA[10 févr. 2019 à 15:06:08]]></name>
    <cmt><![CDATA[10 févr. 2019 à 15:06:08]]></cmt>
    <desc><![CDATA[{DC1}Heure de fin	: 
Durée totale	: 0h00:00
Moyenne globale	: -
Pente moyenne	: 8.03 %
Aire incluse	: 204.0794 ha
Détails par segments
distance  | durée    | vit.moy. | vit.max. | déniv. + | déniv -
   km     | hh:mn:ss |   km/h   |   km/h   |    m     |    m
    12.88 | 00:00:00 |      0.0 |      0.0 |        0 |        0{DC2}]]></desc>
      <rtept lat="45.5509" lon="5.9394">
        <ele>368</ele>
      </rtept>
      <rtept lat="45.55217" lon="5.93791">
        <ele>377</ele>
      </rtept>
    </rte>
  <rte>
    <name><![CDATA[10 févr. 2019 à 14:22:06]]></name>
    <cmt><![CDATA[10 févr. 2019 à 14:22:06]]></cmt>
    <desc><![CDATA[{DC1}Heure de fin	: 00:09:21
Durée totale	: -17690438h37:54
Moyenne globale	: -
Pente moyenne	: 5.62 %
Aire incluse	: 5.7967 ha
Détails par segments
distance  | durée    | vit.moy. | vit.max. | déniv. + | déniv -
   km     | hh:mn:ss |   km/h   |   km/h   |    m     |    m
     3.30 | 00:00:00 |      0.0 |      0.0 |        0 |        0{DC2}]]></desc>
      <rtept lat="45.55169" lon="5.93089">
        <ele>415</ele>
      </rtept>
      <rtept lat="45.5518" lon="5.93905">
        <ele>366</ele>
      </rtept>
    </rte>
  <rte>
    <name><![CDATA[10 févr. 2019 à 09:50:45]]></name>
    <cmt><![CDATA[10 févr. 2019 à 09:50:45]]></cmt>
    <desc><![CDATA[{DC1}Heure de fin	: 00:09:21
Durée totale	: -17690433h09:14
Moyenne globale	: -
Pente moyenne	: 0.00 %
Aire incluse	: 50.7119 ha
Détails par segments
distance  | durée    | vit.moy. | vit.max. | déniv. + | déniv -
   km     | hh:mn:ss |   km/h   |   km/h   |    m     |    m
     4.33 | 00:00:00 |      0.0 |      0.0 |        0 |        0{DC2}]]></desc>
      <rtept lat="45.5503" lon="5.93918">
        <ele>373.6</ele>
      </rtept>
      <rtept lat="45.55191" lon="5.93893">
        <ele>366.7</ele>
      </rtept>
    </rte>
  <rte>
    <name><![CDATA[10 févr. 2019 à 09:07:08]]></name>
    <cmt><![CDATA[10 févr. 2019 à 09:07:08]]></cmt>
    <desc><![CDATA[{DC1}Heure de fin	: 00:09:21
Durée totale	: -17690433h52:52
Moyenne globale	: -
Pente moyenne	: nan %
Aire incluse	: 0.0000 ha
Détails par segments
distance  | durée    | vit.moy. | vit.max. | déniv. + | déniv -
   km     | hh:mn:ss |   km/h   |   km/h   |    m     |    m
     0.00 | 00:00:00 |      0.0 |      0.0 |        0 |        0{DC2}]]></desc>
      <rtept lat="45.55102" lon="5.93919">
        <ele>370.1</ele>
      </rtept>
    </rte>
  <rte>
    <name><![CDATA[10 févr. 2019 à 09:02:25]]></name>
    <cmt><![CDATA[10 févr. 2019 à 09:02:25]]></cmt>
    <desc><![CDATA[{DC1}Heure de fin	: 00:09:21
Durée totale	: -17690433h57:35
Moyenne globale	: -
Pente moyenne	: nan %
Aire incluse	: 0.0000 ha
Détails par segments
distance  | durée    | vit.moy. | vit.max. | déniv. + | déniv -
   km     | hh:mn:ss |   km/h   |   km/h   |    m     |    m
     0.00 | 00:00:00 |      0.0 |      0.0 |        0 |        0{DC2}]]></desc>
      <rtept lat="45.55207" lon="5.93813">
        <ele>375.2</ele>
      </rtept>
    </rte>
  <rte>
    <name><![CDATA[10 févr. 2019 à 09:00:27]]></name>
    <cmt><![CDATA[10 févr. 2019 à 09:00:27]]></cmt>
    <desc><![CDATA[{DC1}Heure de fin	: 00:09:21
Durée totale	: -17690433h59:32
Moyenne globale	: -
Pente moyenne	: nan %
Aire incluse	: 0.0000 ha
Détails par segments
distance  | durée    | vit.moy. | vit.max. | déniv. + | déniv -
   km     | hh:mn:ss |   km/h   |   km/h   |    m     |    m
     0.00 | 00:00:00 |      0.0 |      0.0 |        0 |        0{DC2}]]></desc>
      <rtept lat="45.55244" lon="5.93858">
        <ele>366.6</ele>
      </rtept>
    </rte>
</gpx>